<?xml version="1.0" encoding="utf-8"?>
<gpx xmlns:xsi="http://www.w3.org/2001/XMLSchema-instance" xmlns:xsd="http://www.w3.org/2001/XMLSchema" version="1.1" creator="Shapelink.com" xmlns="http://www.topografix.com/GPX/1/1" xmlns:gpxtpx="http://www.garmin.com/xmlschemas/TrackPointExtension/v1">
  <metadata>
    <name>Löpning 18.11 km, 2012-02-19</name>
    <desc></desc>
    <author><name>Dennis Rehn</name></author> 
    <time>2012-02-19T09:05:52Z</time>
  </metadata>
  <trk>
    <name>Löpning 18.11 km, 2012-02-19</name>
    <trkseg>
      <trkpt lat="59.9900428458" lon="23.4081743748">
        <ele>0</ele>
        <time>2012-02-19T09:05:52Z</time>
      </trkpt>
      <trkpt lat="59.9896785685" lon="23.4080573635">
        <ele>0</ele>
        <time>2012-02-19T09:06:05Z</time>
      </trkpt>
      <trkpt lat="59.989626433" lon="23.4080428628">
        <ele>0</ele>
        <time>2012-02-19T09:06:06Z</time>
      </trkpt>
      <trkpt lat="59.9892303883" lon="23.4077747258">
        <ele>0</ele>
        <time>2012-02-19T09:06:19Z</time>
      </trkpt>
      <trkpt lat="59.9891165621" lon="23.4076635818">
        <ele>0</ele>
        <time>2012-02-19T09:06:24Z</time>
      </trkpt>
      <trkpt lat="59.988987397" lon="23.4074991289">
        <ele>0</ele>
        <time>2012-02-19T09:06:30Z</time>
      </trkpt>
      <trkpt lat="59.988902656" lon="23.4073272161">
        <ele>0</ele>
        <time>2012-02-19T09:06:35Z</time>
      </trkpt>
      <trkpt lat="59.9888153166" lon="23.4071206023">
        <ele>0</ele>
        <time>2012-02-19T09:06:41Z</time>
      </trkpt>
      <trkpt lat="59.9887195953" lon="23.40691885">
        <ele>0</ele>
        <time>2012-02-19T09:06:47Z</time>
      </trkpt>
      <trkpt lat="59.9886164141" lon="23.4067518825">
        <ele>0</ele>
        <time>2012-02-19T09:06:53Z</time>
      </trkpt>
      <trkpt lat="59.9883155039" lon="23.4063611183">
        <ele>0</ele>
        <time>2012-02-19T09:07:07Z</time>
      </trkpt>
      <trkpt lat="59.9881775378" lon="23.4062653971">
        <ele>0</ele>
        <time>2012-02-19T09:07:13Z</time>
      </trkpt>
      <trkpt lat="59.9880430083" lon="23.4062636369">
        <ele>0</ele>
        <time>2012-02-19T09:07:19Z</time>
      </trkpt>
      <trkpt lat="59.9878964089" lon="23.4063451089">
        <ele>0</ele>
        <time>2012-02-19T09:07:25Z</time>
      </trkpt>
      <trkpt lat="59.9877428525" lon="23.4065195363">
        <ele>0</ele>
        <time>2012-02-19T09:07:32Z</time>
      </trkpt>
      <trkpt lat="59.9876303674" lon="23.4066620286">
        <ele>0</ele>
        <time>2012-02-19T09:07:37Z</time>
      </trkpt>
      <trkpt lat="59.9874961732" lon="23.4068367912">
        <ele>0</ele>
        <time>2012-02-19T09:07:43Z</time>
      </trkpt>
      <trkpt lat="59.9873917347" lon="23.4069708178">
        <ele>0</ele>
        <time>2012-02-19T09:07:48Z</time>
      </trkpt>
      <trkpt lat="59.9872533495" lon="23.4071248771">
        <ele>0</ele>
        <time>2012-02-19T09:07:54Z</time>
      </trkpt>
      <trkpt lat="59.9871479052" lon="23.407228645">
        <ele>0</ele>
        <time>2012-02-19T09:07:58Z</time>
      </trkpt>
      <trkpt lat="59.9869704604" lon="23.407319421">
        <ele>0</ele>
        <time>2012-02-19T09:08:05Z</time>
      </trkpt>
      <trkpt lat="59.9868448157" lon="23.4073418006">
        <ele>0</ele>
        <time>2012-02-19T09:08:10Z</time>
      </trkpt>
      <trkpt lat="59.9866950312" lon="23.4073454887">
        <ele>0</ele>
        <time>2012-02-19T09:08:16Z</time>
      </trkpt>
      <trkpt lat="59.9865631839" lon="23.407335598">
        <ele>0</ele>
        <time>2012-02-19T09:08:21Z</time>
      </trkpt>
      <trkpt lat="59.9863797041" lon="23.4073355142">
        <ele>0</ele>
        <time>2012-02-19T09:08:28Z</time>
      </trkpt>
      <trkpt lat="59.9862284946" lon="23.4073439799">
        <ele>0</ele>
        <time>2012-02-19T09:08:34Z</time>
      </trkpt>
      <trkpt lat="59.9860992457" lon="23.4073431418">
        <ele>0</ele>
        <time>2012-02-19T09:08:40Z</time>
      </trkpt>
      <trkpt lat="59.9859533168" lon="23.4073072672">
        <ele>0</ele>
        <time>2012-02-19T09:08:46Z</time>
      </trkpt>
      <trkpt lat="59.98580831" lon="23.4072106239">
        <ele>0</ele>
        <time>2012-02-19T09:08:52Z</time>
      </trkpt>
      <trkpt lat="59.985658274" lon="23.4071000667">
        <ele>0</ele>
        <time>2012-02-19T09:08:59Z</time>
      </trkpt>
      <trkpt lat="59.9855084894" lon="23.407010045">
        <ele>0</ele>
        <time>2012-02-19T09:09:05Z</time>
      </trkpt>
      <trkpt lat="59.9853587048" lon="23.4069565685">
        <ele>0</ele>
        <time>2012-02-19T09:09:11Z</time>
      </trkpt>
      <trkpt lat="59.9852173022" lon="23.406924382">
        <ele>0</ele>
        <time>2012-02-19T09:09:17Z</time>
      </trkpt>
      <trkpt lat="59.9851140372" lon="23.4068744259">
        <ele>0</ele>
        <time>2012-02-19T09:09:21Z</time>
      </trkpt>
      <trkpt lat="59.9850394383" lon="23.4067194446">
        <ele>0.6</ele>
        <time>2012-02-19T09:09:25Z</time>
      </trkpt>
      <trkpt lat="59.9850303858" lon="23.406512244">
        <ele>1.8</ele>
        <time>2012-02-19T09:09:29Z</time>
      </trkpt>
      <trkpt lat="59.985065506" lon="23.4062667382">
        <ele>3.6</ele>
        <time>2012-02-19T09:09:35Z</time>
      </trkpt>
      <trkpt lat="59.9850932501" lon="23.4059809154">
        <ele>5.8</ele>
        <time>2012-02-19T09:09:41Z</time>
      </trkpt>
      <trkpt lat="59.9851226705" lon="23.4057168017">
        <ele>7.6</ele>
        <time>2012-02-19T09:09:47Z</time>
      </trkpt>
      <trkpt lat="59.985146056" lon="23.4054667696">
        <ele>8.8</ele>
        <time>2012-02-19T09:09:53Z</time>
      </trkpt>
      <trkpt lat="59.9851439606" lon="23.4052234431">
        <ele>10.6</ele>
        <time>2012-02-19T09:09:58Z</time>
      </trkpt>
      <trkpt lat="59.9851319744" lon="23.404841899">
        <ele>13.2</ele>
        <time>2012-02-19T09:10:06Z</time>
      </trkpt>
      <trkpt lat="59.9851004585" lon="23.4044663899">
        <ele>15.4</ele>
        <time>2012-02-19T09:10:14Z</time>
      </trkpt>
      <trkpt lat="59.9850888077" lon="23.4041997616">
        <ele>17</ele>
        <time>2012-02-19T09:10:20Z</time>
      </trkpt>
      <trkpt lat="59.9850606445" lon="23.4039547587">
        <ele>18.2</ele>
        <time>2012-02-19T09:10:25Z</time>
      </trkpt>
      <trkpt lat="59.9850116104" lon="23.4036138668">
        <ele>20</ele>
        <time>2012-02-19T09:10:32Z</time>
      </trkpt>
      <trkpt lat="59.9849688627" lon="23.4033143815">
        <ele>21.6</ele>
        <time>2012-02-19T09:10:38Z</time>
      </trkpt>
      <trkpt lat="59.9849231813" lon="23.4030252898">
        <ele>22.8</ele>
        <time>2012-02-19T09:10:44Z</time>
      </trkpt>
      <trkpt lat="59.9848870553" lon="23.4027920215">
        <ele>24.2</ele>
        <time>2012-02-19T09:10:49Z</time>
      </trkpt>
      <trkpt lat="59.9848453973" lon="23.4025103897">
        <ele>25</ele>
        <time>2012-02-19T09:10:55Z</time>
      </trkpt>
      <trkpt lat="59.9847638414" lon="23.4018939009">
        <ele>27.2</ele>
        <time>2012-02-19T09:11:07Z</time>
      </trkpt>
      <trkpt lat="59.9847240274" lon="23.4015698567">
        <ele>27.6</ele>
        <time>2012-02-19T09:11:13Z</time>
      </trkpt>
      <trkpt lat="59.9846759991" lon="23.4011801821">
        <ele>27.8</ele>
        <time>2012-02-19T09:11:20Z</time>
      </trkpt>
      <trkpt lat="59.9846303177" lon="23.4008510249">
        <ele>28</ele>
        <time>2012-02-19T09:11:26Z</time>
      </trkpt>
      <trkpt lat="59.9845633464" lon="23.4004727498">
        <ele>28</ele>
        <time>2012-02-19T09:11:33Z</time>
      </trkpt>
      <trkpt lat="59.9845216883" lon="23.4002192811">
        <ele>28</ele>
        <time>2012-02-19T09:11:38Z</time>
      </trkpt>
      <trkpt lat="59.9845142284" lon="23.4001710852">
        <ele>28.2</ele>
        <time>2012-02-19T09:11:39Z</time>
      </trkpt>
      <trkpt lat="59.9844535435" lon="23.3998633857">
        <ele>29.2</ele>
        <time>2012-02-19T09:11:45Z</time>
      </trkpt>
      <trkpt lat="59.9843201874" lon="23.3992824362">
        <ele>29.8</ele>
        <time>2012-02-19T09:11:57Z</time>
      </trkpt>
      <trkpt lat="59.9842398888" lon="23.3989649298">
        <ele>30</ele>
        <time>2012-02-19T09:12:04Z</time>
      </trkpt>
      <trkpt lat="59.9841756835" lon="23.3987006485">
        <ele>30</ele>
        <time>2012-02-19T09:12:10Z</time>
      </trkpt>
      <trkpt lat="59.9841128192" lon="23.3984061085">
        <ele>30</ele>
        <time>2012-02-19T09:12:16Z</time>
      </trkpt>
      <trkpt lat="59.9840417407" lon="23.3981346188">
        <ele>30</ele>
        <time>2012-02-19T09:12:22Z</time>
      </trkpt>
      <trkpt lat="59.9839736797" lon="23.3978538251">
        <ele>31</ele>
        <time>2012-02-19T09:12:28Z</time>
      </trkpt>
      <trkpt lat="59.9838962309" lon="23.3975666612">
        <ele>31.6</ele>
        <time>2012-02-19T09:12:34Z</time>
      </trkpt>
      <trkpt lat="59.9838175249" lon="23.3973426969">
        <ele>31.8</ele>
        <time>2012-02-19T09:12:39Z</time>
      </trkpt>
      <trkpt lat="59.9837212169" lon="23.3971102668">
        <ele>32</ele>
        <time>2012-02-19T09:12:45Z</time>
      </trkpt>
      <trkpt lat="59.9836117492" lon="23.3968745677">
        <ele>32</ele>
        <time>2012-02-19T09:12:51Z</time>
      </trkpt>
      <trkpt lat="59.9835093224" lon="23.3966981288">
        <ele>32</ele>
        <time>2012-02-19T09:12:56Z</time>
      </trkpt>
      <trkpt lat="59.9833867791" lon="23.3965071891">
        <ele>32.2</ele>
        <time>2012-02-19T09:13:02Z</time>
      </trkpt>
      <trkpt lat="59.9832323006" lon="23.396319686">
        <ele>32.2</ele>
        <time>2012-02-19T09:13:08Z</time>
      </trkpt>
      <trkpt lat="59.9830493238" lon="23.396122376">
        <ele>32.2</ele>
        <time>2012-02-19T09:13:15Z</time>
      </trkpt>
      <trkpt lat="59.9829238467" lon="23.3959963123">
        <ele>32.2</ele>
        <time>2012-02-19T09:13:20Z</time>
      </trkpt>
      <trkpt lat="59.9827738945" lon="23.3958482041">
        <ele>32.2</ele>
        <time>2012-02-19T09:13:26Z</time>
      </trkpt>
      <trkpt lat="59.9826567994" lon="23.3957429274">
        <ele>32.2</ele>
        <time>2012-02-19T09:13:31Z</time>
      </trkpt>
      <trkpt lat="59.9825169893" lon="23.395610661">
        <ele>32.2</ele>
        <time>2012-02-19T09:13:37Z</time>
      </trkpt>
      <trkpt lat="59.9823909255" lon="23.3955135148">
        <ele>32.2</ele>
        <time>2012-02-19T09:13:42Z</time>
      </trkpt>
      <trkpt lat="59.9822625986" lon="23.3954191346">
        <ele>32.2</ele>
        <time>2012-02-19T09:13:47Z</time>
      </trkpt>
      <trkpt lat="59.982135529" lon="23.395328191">
        <ele>32.2</ele>
        <time>2012-02-19T09:13:52Z</time>
      </trkpt>
      <trkpt lat="59.9819771111" lon="23.3952296199">
        <ele>32.2</ele>
        <time>2012-02-19T09:13:58Z</time>
      </trkpt>
      <trkpt lat="59.9818249796" lon="23.395135575">
        <ele>32.2</ele>
        <time>2012-02-19T09:14:04Z</time>
      </trkpt>
      <trkpt lat="59.9816342914" lon="23.3950324776">
        <ele>32</ele>
        <time>2012-02-19T09:14:11Z</time>
      </trkpt>
      <trkpt lat="59.9814809026" lon="23.3949642489">
        <ele>31.2</ele>
        <time>2012-02-19T09:14:17Z</time>
      </trkpt>
      <trkpt lat="59.9813610415" lon="23.3949297993">
        <ele>30.8</ele>
        <time>2012-02-19T09:14:22Z</time>
      </trkpt>
      <trkpt lat="59.9812078203" lon="23.3948739759">
        <ele>30.4</ele>
        <time>2012-02-19T09:14:28Z</time>
      </trkpt>
      <trkpt lat="59.9810390927" lon="23.3948240197">
        <ele>30.4</ele>
        <time>2012-02-19T09:14:34Z</time>
      </trkpt>
      <trkpt lat="59.9808794175" lon="23.394783619">
        <ele>30.2</ele>
        <time>2012-02-19T09:14:40Z</time>
      </trkpt>
      <trkpt lat="59.9806941775" lon="23.3947218444">
        <ele>30.2</ele>
        <time>2012-02-19T09:14:47Z</time>
      </trkpt>
      <trkpt lat="59.9805300599" lon="23.3946647636">
        <ele>30.2</ele>
        <time>2012-02-19T09:14:53Z</time>
      </trkpt>
      <trkpt lat="59.9803379467" lon="23.3946007259">
        <ele>30.2</ele>
        <time>2012-02-19T09:15:00Z</time>
      </trkpt>
      <trkpt lat="59.9801498569" lon="23.394542807">
        <ele>30.2</ele>
        <time>2012-02-19T09:15:07Z</time>
      </trkpt>
      <trkpt lat="59.9800196022" lon="23.3944772605">
        <ele>30.2</ele>
        <time>2012-02-19T09:15:12Z</time>
      </trkpt>
      <trkpt lat="59.9798321829" lon="23.3943868198">
        <ele>29.4</ele>
        <time>2012-02-19T09:15:19Z</time>
      </trkpt>
      <trkpt lat="59.9796479487" lon="23.3942688027">
        <ele>28.8</ele>
        <time>2012-02-19T09:15:26Z</time>
      </trkpt>
      <trkpt lat="59.9794934703" lon="23.394179284">
        <ele>28.4</ele>
        <time>2012-02-19T09:15:32Z</time>
      </trkpt>
      <trkpt lat="59.979339411" lon="23.3940817187">
        <ele>28.2</ele>
        <time>2012-02-19T09:15:38Z</time>
      </trkpt>
      <trkpt lat="59.9791524108" lon="23.3939760229">
        <ele>28.2</ele>
        <time>2012-02-19T09:15:45Z</time>
      </trkpt>
      <trkpt lat="59.9790086612" lon="23.3938911981">
        <ele>28.2</ele>
        <time>2012-02-19T09:15:51Z</time>
      </trkpt>
      <trkpt lat="59.9788208228" lon="23.3938103966">
        <ele>28.2</ele>
        <time>2012-02-19T09:15:58Z</time>
      </trkpt>
      <trkpt lat="59.9786258599" lon="23.3937877654">
        <ele>28.2</ele>
        <time>2012-02-19T09:16:05Z</time>
      </trkpt>
      <trkpt lat="59.9784918333" lon="23.3937626197">
        <ele>28</ele>
        <time>2012-02-19T09:16:10Z</time>
      </trkpt>
      <trkpt lat="59.9783233571" lon="23.3937352947">
        <ele>27</ele>
        <time>2012-02-19T09:16:16Z</time>
      </trkpt>
      <trkpt lat="59.9781661126" lon="23.3937051199">
        <ele>26.6</ele>
        <time>2012-02-19T09:16:22Z</time>
      </trkpt>
      <trkpt lat="59.9779822976" lon="23.3936964027">
        <ele>26.2</ele>
        <time>2012-02-19T09:16:29Z</time>
      </trkpt>
      <trkpt lat="59.9778309205" lon="23.3937441796">
        <ele>26.2</ele>
        <time>2012-02-19T09:16:35Z</time>
      </trkpt>
      <trkpt lat="59.9777025097" lon="23.393770834">
        <ele>26</ele>
        <time>2012-02-19T09:16:41Z</time>
      </trkpt>
      <trkpt lat="59.9776043577" lon="23.3937090594">
        <ele>26</ele>
        <time>2012-02-19T09:16:46Z</time>
      </trkpt>
      <trkpt lat="59.9775098099" lon="23.3935872704">
        <ele>26</ele>
        <time>2012-02-19T09:16:51Z</time>
      </trkpt>
      <trkpt lat="59.977429176" lon="23.3933959954">
        <ele>26</ele>
        <time>2012-02-19T09:16:56Z</time>
      </trkpt>
      <trkpt lat="59.9773463628" lon="23.3932116774">
        <ele>26</ele>
        <time>2012-02-19T09:17:01Z</time>
      </trkpt>
      <trkpt lat="59.9772126715" lon="23.3929320573">
        <ele>26</ele>
        <time>2012-02-19T09:17:09Z</time>
      </trkpt>
      <trkpt lat="59.977087865" lon="23.3927040696">
        <ele>26</ele>
        <time>2012-02-19T09:17:16Z</time>
      </trkpt>
      <trkpt lat="59.9769771401" lon="23.392471891">
        <ele>26</ele>
        <time>2012-02-19T09:17:22Z</time>
      </trkpt>
      <trkpt lat="59.9768815026" lon="23.3922874053">
        <ele>26</ele>
        <time>2012-02-19T09:17:27Z</time>
      </trkpt>
      <trkpt lat="59.9768001144" lon="23.3920911851">
        <ele>26</ele>
        <time>2012-02-19T09:17:32Z</time>
      </trkpt>
      <trkpt lat="59.9766962627" lon="23.3918524685">
        <ele>26.8</ele>
        <time>2012-02-19T09:17:38Z</time>
      </trkpt>
      <trkpt lat="59.9765992002" lon="23.3916174401">
        <ele>27.4</ele>
        <time>2012-02-19T09:17:44Z</time>
      </trkpt>
      <trkpt lat="59.9765017188" lon="23.39137294">
        <ele>27.8</ele>
        <time>2012-02-19T09:17:50Z</time>
      </trkpt>
      <trkpt lat="59.9764074224" lon="23.3911177112">
        <ele>27.8</ele>
        <time>2012-02-19T09:17:56Z</time>
      </trkpt>
      <trkpt lat="59.9763195801" lon="23.3908799167">
        <ele>28</ele>
        <time>2012-02-19T09:18:02Z</time>
      </trkpt>
      <trkpt lat="59.9762195002" lon="23.3906099357">
        <ele>28</ele>
        <time>2012-02-19T09:18:08Z</time>
      </trkpt>
      <trkpt lat="59.9761140559" lon="23.3903169883">
        <ele>28</ele>
        <time>2012-02-19T09:18:15Z</time>
      </trkpt>
      <trkpt lat="59.9760216035" lon="23.39005036">
        <ele>28</ele>
        <time>2012-02-19T09:18:21Z</time>
      </trkpt>
      <trkpt lat="59.9759352699" lon="23.3897898506">
        <ele>28</ele>
        <time>2012-02-19T09:18:27Z</time>
      </trkpt>
      <trkpt lat="59.9758323402" lon="23.3894926284">
        <ele>28</ele>
        <time>2012-02-19T09:18:34Z</time>
      </trkpt>
      <trkpt lat="59.9757567355" lon="23.3892924686">
        <ele>28</ele>
        <time>2012-02-19T09:18:39Z</time>
      </trkpt>
      <trkpt lat="59.9757052706" lon="23.3891516527">
        <ele>28</ele>
        <time>2012-02-19T09:18:43Z</time>
      </trkpt>
      <trkpt lat="59.9756301688" lon="23.3888965077">
        <ele>28</ele>
        <time>2012-02-19T09:18:50Z</time>
      </trkpt>
      <trkpt lat="59.9755828949" lon="23.3886821825">
        <ele>28</ele>
        <time>2012-02-19T09:18:57Z</time>
      </trkpt>
      <trkpt lat="59.9755300051" lon="23.3884236847">
        <ele>28</ele>
        <time>2012-02-19T09:19:03Z</time>
      </trkpt>
      <trkpt lat="59.9754930409" lon="23.3882229382">
        <ele>28</ele>
        <time>2012-02-19T09:19:07Z</time>
      </trkpt>
      <trkpt lat="59.9754559929" lon="23.3879335112">
        <ele>28</ele>
        <time>2012-02-19T09:19:13Z</time>
      </trkpt>
      <trkpt lat="59.9754305958" lon="23.3876749296">
        <ele>29</ele>
        <time>2012-02-19T09:19:18Z</time>
      </trkpt>
      <trkpt lat="59.9754097248" lon="23.3873749414">
        <ele>29.4</ele>
        <time>2012-02-19T09:19:24Z</time>
      </trkpt>
      <trkpt lat="59.9753969005" lon="23.3871218918">
        <ele>29.8</ele>
        <time>2012-02-19T09:19:29Z</time>
      </trkpt>
      <trkpt lat="59.9753904464" lon="23.3868951614">
        <ele>29.8</ele>
        <time>2012-02-19T09:19:34Z</time>
      </trkpt>
      <trkpt lat="59.9753897759" lon="23.3866012082">
        <ele>30.4</ele>
        <time>2012-02-19T09:19:40Z</time>
      </trkpt>
      <trkpt lat="59.9753906979" lon="23.3862867193">
        <ele>31.2</ele>
        <time>2012-02-19T09:19:46Z</time>
      </trkpt>
      <trkpt lat="59.9753931287" lon="23.3860219351">
        <ele>31.6</ele>
        <time>2012-02-19T09:19:51Z</time>
      </trkpt>
      <trkpt lat="59.975393883" lon="23.3856962145">
        <ele>31.8</ele>
        <time>2012-02-19T09:19:57Z</time>
      </trkpt>
      <trkpt lat="59.9753916199" lon="23.3853800492">
        <ele>32</ele>
        <time>2012-02-19T09:20:03Z</time>
      </trkpt>
      <trkpt lat="59.9753963138" lon="23.3850788037">
        <ele>32</ele>
        <time>2012-02-19T09:20:08Z</time>
      </trkpt>
      <trkpt lat="59.9754012591" lon="23.3848209765">
        <ele>32</ele>
        <time>2012-02-19T09:20:13Z</time>
      </trkpt>
      <trkpt lat="59.9754041089" lon="23.3844944176">
        <ele>32.2</ele>
        <time>2012-02-19T09:20:19Z</time>
      </trkpt>
      <trkpt lat="59.9754088028" lon="23.3842211677">
        <ele>32.2</ele>
        <time>2012-02-19T09:20:24Z</time>
      </trkpt>
      <trkpt lat="59.9754170171" lon="23.383952444">
        <ele>32.2</ele>
        <time>2012-02-19T09:20:29Z</time>
      </trkpt>
      <trkpt lat="59.9754119879" lon="23.3835861549">
        <ele>32.2</ele>
        <time>2012-02-19T09:20:36Z</time>
      </trkpt>
      <trkpt lat="59.9754124908" lon="23.3832347857">
        <ele>32</ele>
        <time>2012-02-19T09:20:43Z</time>
      </trkpt>
      <trkpt lat="59.9754177714" lon="23.3829218056">
        <ele>31</ele>
        <time>2012-02-19T09:20:49Z</time>
      </trkpt>
      <trkpt lat="59.9754197831" lon="23.3825568576">
        <ele>30.6</ele>
        <time>2012-02-19T09:20:56Z</time>
      </trkpt>
      <trkpt lat="59.9754217109" lon="23.3821530177">
        <ele>29.8</ele>
        <time>2012-02-19T09:21:04Z</time>
      </trkpt>
      <trkpt lat="59.9754233035" lon="23.3818102818">
        <ele>28.8</ele>
        <time>2012-02-19T09:21:10Z</time>
      </trkpt>
      <trkpt lat="59.9754161789" lon="23.3815572322">
        <ele>28.4</ele>
        <time>2012-02-19T09:21:15Z</time>
      </trkpt>
      <trkpt lat="59.975413329" lon="23.3812959684">
        <ele>28.2</ele>
        <time>2012-02-19T09:21:21Z</time>
      </trkpt>
      <trkpt lat="59.9754167656" lon="23.3810201201">
        <ele>28</ele>
        <time>2012-02-19T09:21:27Z</time>
      </trkpt>
      <trkpt lat="59.9754191964" lon="23.3806807369">
        <ele>28</ele>
        <time>2012-02-19T09:21:34Z</time>
      </trkpt>
      <trkpt lat="59.9754247284" lon="23.3804203951">
        <ele>28</ele>
        <time>2012-02-19T09:21:40Z</time>
      </trkpt>
      <trkpt lat="59.9754274944" lon="23.3801687705">
        <ele>28</ele>
        <time>2012-02-19T09:21:45Z</time>
      </trkpt>
      <trkpt lat="59.9754367984" lon="23.3798820257">
        <ele>28</ele>
        <time>2012-02-19T09:21:51Z</time>
      </trkpt>
      <trkpt lat="59.9754517181" lon="23.3796198399">
        <ele>28.4</ele>
        <time>2012-02-19T09:21:57Z</time>
      </trkpt>
      <trkpt lat="59.9754637881" lon="23.3793272277">
        <ele>29.2</ele>
        <time>2012-02-19T09:22:03Z</time>
      </trkpt>
      <trkpt lat="59.975459178" lon="23.3790363758">
        <ele>29.4</ele>
        <time>2012-02-19T09:22:09Z</time>
      </trkpt>
      <trkpt lat="59.9753694079" lon="23.3788426701">
        <ele>30.4</ele>
        <time>2012-02-19T09:22:15Z</time>
      </trkpt>
      <trkpt lat="59.9752959824" lon="23.3785710965">
        <ele>31.2</ele>
        <time>2012-02-19T09:22:21Z</time>
      </trkpt>
      <trkpt lat="59.9752409134" lon="23.3783434441">
        <ele>31.6</ele>
        <time>2012-02-19T09:22:26Z</time>
      </trkpt>
      <trkpt lat="59.9751738582" lon="23.3781026321">
        <ele>31.8</ele>
        <time>2012-02-19T09:22:31Z</time>
      </trkpt>
      <trkpt lat="59.9750974152" lon="23.3778728843">
        <ele>31.8</ele>
        <time>2012-02-19T09:22:36Z</time>
      </trkpt>
      <trkpt lat="59.9750146859" lon="23.3776049149">
        <ele>32</ele>
        <time>2012-02-19T09:22:42Z</time>
      </trkpt>
      <trkpt lat="59.9749577728" lon="23.3774361873">
        <ele>32</ele>
        <time>2012-02-19T09:22:46Z</time>
      </trkpt>
      <trkpt lat="59.9748860237" lon="23.3772164139">
        <ele>32</ele>
        <time>2012-02-19T09:22:51Z</time>
      </trkpt>
      <trkpt lat="59.9748090779" lon="23.3769692316">
        <ele>32</ele>
        <time>2012-02-19T09:22:57Z</time>
      </trkpt>
      <trkpt lat="59.9747162064" lon="23.3766691596">
        <ele>32</ele>
        <time>2012-02-19T09:23:04Z</time>
      </trkpt>
      <trkpt lat="59.9746121032" lon="23.3763592808">
        <ele>32.4</ele>
        <time>2012-02-19T09:23:11Z</time>
      </trkpt>
      <trkpt lat="59.9745055693" lon="23.3760485637">
        <ele>33.4</ele>
        <time>2012-02-19T09:23:19Z</time>
      </trkpt>
      <trkpt lat="59.9744140389" lon="23.3758103501">
        <ele>33.8</ele>
        <time>2012-02-19T09:23:25Z</time>
      </trkpt>
      <trkpt lat="59.9743246879" lon="23.3755687838">
        <ele>33.8</ele>
        <time>2012-02-19T09:23:31Z</time>
      </trkpt>
      <trkpt lat="59.9742540284" lon="23.3753543748">
        <ele>34</ele>
        <time>2012-02-19T09:23:36Z</time>
      </trkpt>
      <trkpt lat="59.9741964448" lon="23.3751366968">
        <ele>34</ele>
        <time>2012-02-19T09:23:41Z</time>
      </trkpt>
      <trkpt lat="59.9741402022" lon="23.3749305859">
        <ele>34</ele>
        <time>2012-02-19T09:23:46Z</time>
      </trkpt>
      <trkpt lat="59.9740811099" lon="23.3747061186">
        <ele>34</ele>
        <time>2012-02-19T09:23:52Z</time>
      </trkpt>
      <trkpt lat="59.9740141385" lon="23.3744364729">
        <ele>34</ele>
        <time>2012-02-19T09:23:58Z</time>
      </trkpt>
      <trkpt lat="59.9739241169" lon="23.3740804936">
        <ele>34</ele>
        <time>2012-02-19T09:24:05Z</time>
      </trkpt>
      <trkpt lat="59.9738392082" lon="23.3737499115">
        <ele>34</ele>
        <time>2012-02-19T09:24:12Z</time>
      </trkpt>
      <trkpt lat="59.9737830495" lon="23.3735329041">
        <ele>34</ele>
        <time>2012-02-19T09:24:17Z</time>
      </trkpt>
      <trkpt lat="59.9736869091" lon="23.3732861409">
        <ele>34</ele>
        <time>2012-02-19T09:24:23Z</time>
      </trkpt>
      <trkpt lat="59.9735641143" lon="23.3730698879">
        <ele>34</ele>
        <time>2012-02-19T09:24:29Z</time>
      </trkpt>
      <trkpt lat="59.973492449" lon="23.3729362804">
        <ele>34</ele>
        <time>2012-02-19T09:24:33Z</time>
      </trkpt>
      <trkpt lat="59.9734002481" lon="23.372730421">
        <ele>34</ele>
        <time>2012-02-19T09:24:39Z</time>
      </trkpt>
      <trkpt lat="59.973308131" lon="23.3724960631">
        <ele>34</ele>
        <time>2012-02-19T09:24:45Z</time>
      </trkpt>
      <trkpt lat="59.9732371363" lon="23.3722033671">
        <ele>34</ele>
        <time>2012-02-19T09:24:52Z</time>
      </trkpt>
      <trkpt lat="59.9731591847" lon="23.3718919795">
        <ele>34</ele>
        <time>2012-02-19T09:24:59Z</time>
      </trkpt>
      <trkpt lat="59.9730995894" lon="23.3716402711">
        <ele>34.4</ele>
        <time>2012-02-19T09:25:05Z</time>
      </trkpt>
      <trkpt lat="59.9730510582" lon="23.3714453919">
        <ele>35.2</ele>
        <time>2012-02-19T09:25:10Z</time>
      </trkpt>
      <trkpt lat="59.9730161895" lon="23.3712139676">
        <ele>35.6</ele>
        <time>2012-02-19T09:25:15Z</time>
      </trkpt>
      <trkpt lat="59.9729744476" lon="23.370986902">
        <ele>35.8</ele>
        <time>2012-02-19T09:25:20Z</time>
      </trkpt>
      <trkpt lat="59.9729265869" lon="23.3707639434">
        <ele>36</ele>
        <time>2012-02-19T09:25:25Z</time>
      </trkpt>
      <trkpt lat="59.9728575201" lon="23.3704531426">
        <ele>36.4</ele>
        <time>2012-02-19T09:25:32Z</time>
      </trkpt>
      <trkpt lat="59.9728059714" lon="23.3701245721">
        <ele>37.4</ele>
        <time>2012-02-19T09:25:39Z</time>
      </trkpt>
      <trkpt lat="59.9727880341" lon="23.3698439461">
        <ele>37.8</ele>
        <time>2012-02-19T09:25:45Z</time>
      </trkpt>
      <trkpt lat="59.9727892076" lon="23.3695883819">
        <ele>38</ele>
        <time>2012-02-19T09:25:51Z</time>
      </trkpt>
      <trkpt lat="59.9727990982" lon="23.3692353363">
        <ele>38</ele>
        <time>2012-02-19T09:25:58Z</time>
      </trkpt>
      <trkpt lat="59.9728232381" lon="23.3688480925">
        <ele>38.8</ele>
        <time>2012-02-19T09:26:06Z</time>
      </trkpt>
      <trkpt lat="59.9728337993" lon="23.3686002398">
        <ele>39.4</ele>
        <time>2012-02-19T09:26:11Z</time>
      </trkpt>
      <trkpt lat="59.9728548379" lon="23.3683135788">
        <ele>39.8</ele>
        <time>2012-02-19T09:26:17Z</time>
      </trkpt>
      <trkpt lat="59.972885348" lon="23.3680046219">
        <ele>40</ele>
        <time>2012-02-19T09:26:23Z</time>
      </trkpt>
      <trkpt lat="59.9729281795" lon="23.3677086571">
        <ele>40.2</ele>
        <time>2012-02-19T09:26:29Z</time>
      </trkpt>
      <trkpt lat="59.9729672392" lon="23.3673946711">
        <ele>40.2</ele>
        <time>2012-02-19T09:26:35Z</time>
      </trkpt>
      <trkpt lat="59.9729903732" lon="23.3671355027">
        <ele>40.2</ele>
        <time>2012-02-19T09:26:40Z</time>
      </trkpt>
      <trkpt lat="59.9730065503" lon="23.3668923438">
        <ele>40.2</ele>
        <time>2012-02-19T09:26:45Z</time>
      </trkpt>
      <trkpt lat="59.9730119985" lon="23.3665820459">
        <ele>40.2</ele>
        <time>2012-02-19T09:26:51Z</time>
      </trkpt>
      <trkpt lat="59.9730762039" lon="23.3662828959">
        <ele>39.8</ele>
        <time>2012-02-19T09:26:57Z</time>
      </trkpt>
      <trkpt lat="59.9731390681" lon="23.366018866">
        <ele>39.2</ele>
        <time>2012-02-19T09:27:03Z</time>
      </trkpt>
      <trkpt lat="59.9731226396" lon="23.3656633058">
        <ele>38.6</ele>
        <time>2012-02-19T09:27:09Z</time>
      </trkpt>
      <trkpt lat="59.9730624575" lon="23.3653763096">
        <ele>38.4</ele>
        <time>2012-02-19T09:27:15Z</time>
      </trkpt>
      <trkpt lat="59.9730005153" lon="23.3651790835">
        <ele>38.2</ele>
        <time>2012-02-19T09:27:20Z</time>
      </trkpt>
      <trkpt lat="59.9729275928" lon="23.364982025">
        <ele>38.2</ele>
        <time>2012-02-19T09:27:25Z</time>
      </trkpt>
      <trkpt lat="59.9728301113" lon="23.3647326635">
        <ele>38.2</ele>
        <time>2012-02-19T09:27:31Z</time>
      </trkpt>
      <trkpt lat="59.9727581946" lon="23.3645113813">
        <ele>38.2</ele>
        <time>2012-02-19T09:27:36Z</time>
      </trkpt>
      <trkpt lat="59.9727219009" lon="23.3642873331">
        <ele>38.2</ele>
        <time>2012-02-19T09:27:41Z</time>
      </trkpt>
      <trkpt lat="59.9726969229" lon="23.3640196152">
        <ele>38.2</ele>
        <time>2012-02-19T09:27:47Z</time>
      </trkpt>
      <trkpt lat="59.9726723639" lon="23.363802524">
        <ele>38.2</ele>
        <time>2012-02-19T09:27:52Z</time>
      </trkpt>
      <trkpt lat="59.9726477211" lon="23.3635545036">
        <ele>39</ele>
        <time>2012-02-19T09:27:58Z</time>
      </trkpt>
      <trkpt lat="59.9726497328" lon="23.3632453791">
        <ele>40.2</ele>
        <time>2012-02-19T09:28:05Z</time>
      </trkpt>
      <trkpt lat="59.9726814164" lon="23.3629553654">
        <ele>41.2</ele>
        <time>2012-02-19T09:28:11Z</time>
      </trkpt>
      <trkpt lat="59.9727290256" lon="23.362691587">
        <ele>41.6</ele>
        <time>2012-02-19T09:28:17Z</time>
      </trkpt>
      <trkpt lat="59.9727860225" lon="23.3624431475">
        <ele>42</ele>
        <time>2012-02-19T09:28:23Z</time>
      </trkpt>
      <trkpt lat="59.9728379903" lon="23.3621706519">
        <ele>42.6</ele>
        <time>2012-02-19T09:28:29Z</time>
      </trkpt>
      <trkpt lat="59.9728692547" lon="23.3619357072">
        <ele>43.2</ele>
        <time>2012-02-19T09:28:34Z</time>
      </trkpt>
      <trkpt lat="59.9728901257" lon="23.3617049535">
        <ele>43.6</ele>
        <time>2012-02-19T09:28:39Z</time>
      </trkpt>
      <trkpt lat="59.9729003516" lon="23.3614359784">
        <ele>44</ele>
        <time>2012-02-19T09:28:45Z</time>
      </trkpt>
      <trkpt lat="59.9729118348" lon="23.3611761395">
        <ele>44</ele>
        <time>2012-02-19T09:28:51Z</time>
      </trkpt>
      <trkpt lat="59.9729140141" lon="23.360934154">
        <ele>44.2</ele>
        <time>2012-02-19T09:28:56Z</time>
      </trkpt>
      <trkpt lat="59.9729448595" lon="23.3603691301">
        <ele>45.6</ele>
        <time>2012-02-19T09:29:08Z</time>
      </trkpt>
      <trkpt lat="59.9729908761" lon="23.3600920245">
        <ele>45.8</ele>
        <time>2012-02-19T09:29:14Z</time>
      </trkpt>
      <trkpt lat="59.9730115794" lon="23.359999656">
        <ele>46</ele>
        <time>2012-02-19T09:29:16Z</time>
      </trkpt>
      <trkpt lat="59.9730572608" lon="23.3597662201">
        <ele>46</ele>
        <time>2012-02-19T09:29:21Z</time>
      </trkpt>
      <trkpt lat="59.9730815683" lon="23.359431447">
        <ele>46.2</ele>
        <time>2012-02-19T09:29:28Z</time>
      </trkpt>
      <trkpt lat="59.9730661456" lon="23.359072534">
        <ele>46.2</ele>
        <time>2012-02-19T09:29:35Z</time>
      </trkpt>
      <trkpt lat="59.9730663132" lon="23.3587630743">
        <ele>46.2</ele>
        <time>2012-02-19T09:29:41Z</time>
      </trkpt>
      <trkpt lat="59.9730735217" lon="23.3584558776">
        <ele>46.2</ele>
        <time>2012-02-19T09:29:47Z</time>
      </trkpt>
      <trkpt lat="59.9731177781" lon="23.3580082842">
        <ele>46.2</ele>
        <time>2012-02-19T09:29:56Z</time>
      </trkpt>
      <trkpt lat="59.973188689" lon="23.3575499619">
        <ele>47.4</ele>
        <time>2012-02-19T09:30:06Z</time>
      </trkpt>
      <trkpt lat="59.9732271619" lon="23.3571753748">
        <ele>48</ele>
        <time>2012-02-19T09:30:14Z</time>
      </trkpt>
      <trkpt lat="59.9732438419" lon="23.3569444534">
        <ele>48</ele>
        <time>2012-02-19T09:30:19Z</time>
      </trkpt>
      <trkpt lat="59.9732559956" lon="23.3566519251">
        <ele>48.2</ele>
        <time>2012-02-19T09:30:25Z</time>
      </trkpt>
      <trkpt lat="59.9732512179" lon="23.3563227679">
        <ele>48.2</ele>
        <time>2012-02-19T09:30:31Z</time>
      </trkpt>
      <trkpt lat="59.9732465241" lon="23.3561276373">
        <ele>48.2</ele>
        <time>2012-02-19T09:30:35Z</time>
      </trkpt>
      <trkpt lat="59.9732230547" lon="23.3558364501">
        <ele>48.2</ele>
        <time>2012-02-19T09:30:41Z</time>
      </trkpt>
      <trkpt lat="59.9731920417" lon="23.3556070375">
        <ele>48.2</ele>
        <time>2012-02-19T09:30:46Z</time>
      </trkpt>
      <trkpt lat="59.973151641" lon="23.3553768705">
        <ele>48.2</ele>
        <time>2012-02-19T09:30:52Z</time>
      </trkpt>
      <trkpt lat="59.9731104858" lon="23.3551439375">
        <ele>48.2</ele>
        <time>2012-02-19T09:30:57Z</time>
      </trkpt>
      <trkpt lat="59.9730729349" lon="23.3548471344">
        <ele>48.2</ele>
        <time>2012-02-19T09:31:03Z</time>
      </trkpt>
      <trkpt lat="59.9730518125" lon="23.3541842938">
        <ele>48.2</ele>
        <time>2012-02-19T09:31:16Z</time>
      </trkpt>
      <trkpt lat="59.9730301034" lon="23.3538750855">
        <ele>48.2</ele>
        <time>2012-02-19T09:31:22Z</time>
      </trkpt>
      <trkpt lat="59.9729452786" lon="23.3535941242">
        <ele>48.2</ele>
        <time>2012-02-19T09:31:28Z</time>
      </trkpt>
      <trkpt lat="59.9728648123" lon="23.3533841576">
        <ele>48.2</ele>
        <time>2012-02-19T09:31:33Z</time>
      </trkpt>
      <trkpt lat="59.9727724438" lon="23.3531165235">
        <ele>48.2</ele>
        <time>2012-02-19T09:31:39Z</time>
      </trkpt>
      <trkpt lat="59.9727198055" lon="23.3529549205">
        <ele>48.2</ele>
        <time>2012-02-19T09:31:43Z</time>
      </trkpt>
      <trkpt lat="59.9726406803" lon="23.3526284455">
        <ele>48.2</ele>
        <time>2012-02-19T09:31:50Z</time>
      </trkpt>
      <trkpt lat="59.9725876229" lon="23.352276238">
        <ele>48.2</ele>
        <time>2012-02-19T09:31:57Z</time>
      </trkpt>
      <trkpt lat="59.9725205677" lon="23.3519338374">
        <ele>48.2</ele>
        <time>2012-02-19T09:32:04Z</time>
      </trkpt>
      <trkpt lat="59.972445885" lon="23.3517473402">
        <ele>48.2</ele>
        <time>2012-02-19T09:32:08Z</time>
      </trkpt>
      <trkpt lat="59.9724312167" lon="23.3517024132">
        <ele>48.2</ele>
        <time>2012-02-19T09:32:09Z</time>
      </trkpt>
      <trkpt lat="59.9723502475" lon="23.3514760181">
        <ele>48.2</ele>
        <time>2012-02-19T09:32:14Z</time>
      </trkpt>
      <trkpt lat="59.9722872994" lon="23.3512582563">
        <ele>48.2</ele>
        <time>2012-02-19T09:32:19Z</time>
      </trkpt>
      <trkpt lat="59.972243965" lon="23.3510394049">
        <ele>48.2</ele>
        <time>2012-02-19T09:32:24Z</time>
      </trkpt>
      <trkpt lat="59.9721881416" lon="23.3507545879">
        <ele>48.2</ele>
        <time>2012-02-19T09:32:30Z</time>
      </trkpt>
      <trkpt lat="59.9721186556" lon="23.3505069866">
        <ele>48.2</ele>
        <time>2012-02-19T09:32:35Z</time>
      </trkpt>
      <trkpt lat="59.9720305618" lon="23.3502297972">
        <ele>48.2</ele>
        <time>2012-02-19T09:32:41Z</time>
      </trkpt>
      <trkpt lat="59.9719552086" lon="23.3499503446">
        <ele>48.2</ele>
        <time>2012-02-19T09:32:47Z</time>
      </trkpt>
      <trkpt lat="59.97187952" lon="23.3496184214">
        <ele>48.2</ele>
        <time>2012-02-19T09:32:54Z</time>
      </trkpt>
      <trkpt lat="59.9718321623" lon="23.349389344">
        <ele>48.2</ele>
        <time>2012-02-19T09:32:59Z</time>
      </trkpt>
      <trkpt lat="59.9717580663" lon="23.349073095">
        <ele>48.2</ele>
        <time>2012-02-19T09:33:06Z</time>
      </trkpt>
      <trkpt lat="59.9717251254" lon="23.3488379827">
        <ele>48.2</ele>
        <time>2012-02-19T09:33:11Z</time>
      </trkpt>
      <trkpt lat="59.9717264665" lon="23.3485528304">
        <ele>48.2</ele>
        <time>2012-02-19T09:33:17Z</time>
      </trkpt>
      <trkpt lat="59.9717534562" lon="23.3483157903">
        <ele>48.2</ele>
        <time>2012-02-19T09:33:22Z</time>
      </trkpt>
      <trkpt lat="59.9718018198" lon="23.3480225076">
        <ele>48.2</ele>
        <time>2012-02-19T09:33:28Z</time>
      </trkpt>
      <trkpt lat="59.9718242833" lon="23.347786138">
        <ele>48.2</ele>
        <time>2012-02-19T09:33:33Z</time>
      </trkpt>
      <trkpt lat="59.9718403765" lon="23.3475398778">
        <ele>48.2</ele>
        <time>2012-02-19T09:33:38Z</time>
      </trkpt>
      <trkpt lat="59.9718385325" lon="23.3472942881">
        <ele>48.2</ele>
        <time>2012-02-19T09:33:43Z</time>
      </trkpt>
      <trkpt lat="59.9718396222" lon="23.3470511292">
        <ele>48.2</ele>
        <time>2012-02-19T09:33:48Z</time>
      </trkpt>
      <trkpt lat="59.9718323299" lon="23.3467356345">
        <ele>48.2</ele>
        <time>2012-02-19T09:33:55Z</time>
      </trkpt>
      <trkpt lat="59.9718056755" lon="23.3464321259">
        <ele>48.2</ele>
        <time>2012-02-19T09:34:01Z</time>
      </trkpt>
      <trkpt lat="59.9717833796" lon="23.3460452174">
        <ele>49.2</ele>
        <time>2012-02-19T09:34:09Z</time>
      </trkpt>
      <trkpt lat="59.9717775961" lon="23.3457960235">
        <ele>49.6</ele>
        <time>2012-02-19T09:34:14Z</time>
      </trkpt>
      <trkpt lat="59.9717468345" lon="23.3454625915">
        <ele>50</ele>
        <time>2012-02-19T09:34:21Z</time>
      </trkpt>
      <trkpt lat="59.9717043383" lon="23.3451895931">
        <ele>50.2</ele>
        <time>2012-02-19T09:34:27Z</time>
      </trkpt>
      <trkpt lat="59.971650275" lon="23.3449584203">
        <ele>50.2</ele>
        <time>2012-02-19T09:34:32Z</time>
      </trkpt>
      <trkpt lat="59.9715951221" lon="23.3447337853">
        <ele>51</ele>
        <time>2012-02-19T09:34:37Z</time>
      </trkpt>
      <trkpt lat="59.9715384605" lon="23.3445022773">
        <ele>51.6</ele>
        <time>2012-02-19T09:34:42Z</time>
      </trkpt>
      <trkpt lat="59.9714834752" lon="23.3442174603">
        <ele>52</ele>
        <time>2012-02-19T09:34:48Z</time>
      </trkpt>
      <trkpt lat="59.971450702" lon="23.343997184">
        <ele>52.2</ele>
        <time>2012-02-19T09:34:53Z</time>
      </trkpt>
      <trkpt lat="59.9714335191" lon="23.3437417036">
        <ele>52.2</ele>
        <time>2012-02-19T09:34:58Z</time>
      </trkpt>
      <trkpt lat="59.9714188508" lon="23.3434989638">
        <ele>52.4</ele>
        <time>2012-02-19T09:35:03Z</time>
      </trkpt>
      <trkpt lat="59.9713961358" lon="23.3431954552">
        <ele>53.4</ele>
        <time>2012-02-19T09:35:09Z</time>
      </trkpt>
      <trkpt lat="59.9713878377" lon="23.3430484367">
        <ele>53.6</ele>
        <time>2012-02-19T09:35:12Z</time>
      </trkpt>
      <trkpt lat="59.9713796235" lon="23.3429356163">
        <ele>53.8</ele>
        <time>2012-02-19T09:35:14Z</time>
      </trkpt>
      <trkpt lat="59.9713573276" lon="23.3426968998">
        <ele>54</ele>
        <time>2012-02-19T09:35:19Z</time>
      </trkpt>
      <trkpt lat="59.971342324" lon="23.342391631">
        <ele>54.2</ele>
        <time>2012-02-19T09:35:25Z</time>
      </trkpt>
      <trkpt lat="59.9713288292" lon="23.3420875357">
        <ele>54.2</ele>
        <time>2012-02-19T09:35:31Z</time>
      </trkpt>
      <trkpt lat="59.9713194414" lon="23.3417644973">
        <ele>54.4</ele>
        <time>2012-02-19T09:35:37Z</time>
      </trkpt>
      <trkpt lat="59.9713165078" lon="23.3415133755">
        <ele>54.4</ele>
        <time>2012-02-19T09:35:42Z</time>
      </trkpt>
      <trkpt lat="59.9713186032" lon="23.3411947795">
        <ele>54.4</ele>
        <time>2012-02-19T09:35:48Z</time>
      </trkpt>
      <trkpt lat="59.9713230457" lon="23.340871322">
        <ele>54.4</ele>
        <time>2012-02-19T09:35:55Z</time>
      </trkpt>
      <trkpt lat="59.971321956" lon="23.3405466072">
        <ele>54.4</ele>
        <time>2012-02-19T09:36:01Z</time>
      </trkpt>
      <trkpt lat="59.9713334392" lon="23.3402935576">
        <ele>54.4</ele>
        <time>2012-02-19T09:36:06Z</time>
      </trkpt>
      <trkpt lat="59.9713525499" lon="23.3400042144">
        <ele>54.4</ele>
        <time>2012-02-19T09:36:12Z</time>
      </trkpt>
      <trkpt lat="59.9713928669" lon="23.3396152105">
        <ele>54.4</ele>
        <time>2012-02-19T09:36:19Z</time>
      </trkpt>
      <trkpt lat="59.9714371233" lon="23.3393842053">
        <ele>54.4</ele>
        <time>2012-02-19T09:36:24Z</time>
      </trkpt>
      <trkpt lat="59.9714821341" lon="23.3390485102">
        <ele>53.4</ele>
        <time>2012-02-19T09:36:31Z</time>
      </trkpt>
      <trkpt lat="59.9714766021" lon="23.3388388789">
        <ele>53</ele>
        <time>2012-02-19T09:36:35Z</time>
      </trkpt>
      <trkpt lat="59.9714322618" lon="23.3385279942">
        <ele>52.6</ele>
        <time>2012-02-19T09:36:41Z</time>
      </trkpt>
      <trkpt lat="59.9713855746" lon="23.3382436802">
        <ele>52.4</ele>
        <time>2012-02-19T09:36:47Z</time>
      </trkpt>
      <trkpt lat="59.9713553998" lon="23.3378796542">
        <ele>52.4</ele>
        <time>2012-02-19T09:36:54Z</time>
      </trkpt>
      <trkpt lat="59.9713635302" lon="23.3375934124">
        <ele>52.4</ele>
        <time>2012-02-19T09:37:00Z</time>
      </trkpt>
      <trkpt lat="59.9713920287" lon="23.337312032">
        <ele>52.2</ele>
        <time>2012-02-19T09:37:05Z</time>
      </trkpt>
      <trkpt lat="59.9714169229" lon="23.3367707289">
        <ele>52.2</ele>
        <time>2012-02-19T09:37:15Z</time>
      </trkpt>
      <trkpt lat="59.9714082896" lon="23.3364626941">
        <ele>52.2</ele>
        <time>2012-02-19T09:37:21Z</time>
      </trkpt>
      <trkpt lat="59.9713846526" lon="23.3361487919">
        <ele>52.2</ele>
        <time>2012-02-19T09:37:27Z</time>
      </trkpt>
      <trkpt lat="59.9713631111" lon="23.3358828342">
        <ele>52.2</ele>
        <time>2012-02-19T09:37:32Z</time>
      </trkpt>
      <trkpt lat="59.9713462635" lon="23.3355679262">
        <ele>52.2</ele>
        <time>2012-02-19T09:37:38Z</time>
      </trkpt>
      <trkpt lat="59.9713460959" lon="23.3352652558">
        <ele>52.2</ele>
        <time>2012-02-19T09:37:44Z</time>
      </trkpt>
      <trkpt lat="59.9713502868" lon="23.3350018127">
        <ele>51.6</ele>
        <time>2012-02-19T09:37:49Z</time>
      </trkpt>
      <trkpt lat="59.9713557351" lon="23.3347523674">
        <ele>51</ele>
        <time>2012-02-19T09:37:54Z</time>
      </trkpt>
      <trkpt lat="59.9713491972" lon="23.3344465118">
        <ele>50.6</ele>
        <time>2012-02-19T09:38:00Z</time>
      </trkpt>
      <trkpt lat="59.9713348641" lon="23.3341496249">
        <ele>50.4</ele>
        <time>2012-02-19T09:38:06Z</time>
      </trkpt>
      <trkpt lat="59.9713222913" lon="23.3338223117">
        <ele>50.4</ele>
        <time>2012-02-19T09:38:12Z</time>
      </trkpt>
      <trkpt lat="59.9713183518" lon="23.3335220721">
        <ele>50.2</ele>
        <time>2012-02-19T09:38:18Z</time>
      </trkpt>
      <trkpt lat="59.9713609318" lon="23.3332200722">
        <ele>49.6</ele>
        <time>2012-02-19T09:38:24Z</time>
      </trkpt>
      <trkpt lat="59.971414576" lon="23.3329783382">
        <ele>49</ele>
        <time>2012-02-19T09:38:29Z</time>
      </trkpt>
      <trkpt lat="59.9714044339" lon="23.3327200919">
        <ele>48.6</ele>
        <time>2012-02-19T09:38:34Z</time>
      </trkpt>
      <trkpt lat="59.9713276557" lon="23.3323942874">
        <ele>48.4</ele>
        <time>2012-02-19T09:38:41Z</time>
      </trkpt>
      <trkpt lat="59.9712245583" lon="23.3320922876">
        <ele>47.4</ele>
        <time>2012-02-19T09:38:48Z</time>
      </trkpt>
      <trkpt lat="59.9711607721" lon="23.3318168583">
        <ele>46.8</ele>
        <time>2012-02-19T09:38:55Z</time>
      </trkpt>
      <trkpt lat="59.9711585928" lon="23.331535897">
        <ele>46.4</ele>
        <time>2012-02-19T09:39:00Z</time>
      </trkpt>
      <trkpt lat="59.9711638734" lon="23.33117053">
        <ele>46.2</ele>
        <time>2012-02-19T09:39:07Z</time>
      </trkpt>
      <trkpt lat="59.9711517196" lon="23.3308650098">
        <ele>45.2</ele>
        <time>2012-02-19T09:39:13Z</time>
      </trkpt>
      <trkpt lat="59.9710986622" lon="23.3305206813">
        <ele>44.6</ele>
        <time>2012-02-19T09:39:20Z</time>
      </trkpt>
      <trkpt lat="59.9710601055" lon="23.3302873292">
        <ele>44.4</ele>
        <time>2012-02-19T09:39:25Z</time>
      </trkpt>
      <trkpt lat="59.9710300144" lon="23.3299471917">
        <ele>44.2</ele>
        <time>2012-02-19T09:39:32Z</time>
      </trkpt>
      <trkpt lat="59.971030685" lon="23.329553913">
        <ele>43.6</ele>
        <time>2012-02-19T09:39:39Z</time>
      </trkpt>
      <trkpt lat="59.9710702476" lon="23.329317711">
        <ele>43</ele>
        <time>2012-02-19T09:39:44Z</time>
      </trkpt>
      <trkpt lat="59.9711609397" lon="23.3290683495">
        <ele>42.6</ele>
        <time>2012-02-19T09:39:50Z</time>
      </trkpt>
      <trkpt lat="59.971270575" lon="23.3288360871">
        <ele>42.2</ele>
        <time>2012-02-19T09:39:56Z</time>
      </trkpt>
      <trkpt lat="59.9713759354" lon="23.328600388">
        <ele>41.2</ele>
        <time>2012-02-19T09:40:02Z</time>
      </trkpt>
      <trkpt lat="59.9714681363" lon="23.3283958697">
        <ele>40.6</ele>
        <time>2012-02-19T09:40:07Z</time>
      </trkpt>
      <trkpt lat="59.9715826331" lon="23.3281041796">
        <ele>40.2</ele>
        <time>2012-02-19T09:40:15Z</time>
      </trkpt>
      <trkpt lat="59.9716384566" lon="23.3278716656">
        <ele>40.2</ele>
        <time>2012-02-19T09:40:19Z</time>
      </trkpt>
      <trkpt lat="59.9716775162" lon="23.327630686">
        <ele>40</ele>
        <time>2012-02-19T09:40:24Z</time>
      </trkpt>
      <trkpt lat="59.9717101218" lon="23.3274021954">
        <ele>40</ele>
        <time>2012-02-19T09:40:29Z</time>
      </trkpt>
      <trkpt lat="59.9717417216" lon="23.3271565219">
        <ele>40</ele>
        <time>2012-02-19T09:40:34Z</time>
      </trkpt>
      <trkpt lat="59.9717915939" lon="23.3268319748">
        <ele>40</ele>
        <time>2012-02-19T09:40:41Z</time>
      </trkpt>
      <trkpt lat="59.9718258758" lon="23.3265971139">
        <ele>40</ele>
        <time>2012-02-19T09:40:46Z</time>
      </trkpt>
      <trkpt lat="59.9718561345" lon="23.3263641809">
        <ele>40</ele>
        <time>2012-02-19T09:40:51Z</time>
      </trkpt>
      <trkpt lat="59.9718939369" lon="23.3261857303">
        <ele>40</ele>
        <time>2012-02-19T09:40:55Z</time>
      </trkpt>
      <trkpt lat="59.9719377742" lon="23.3259928628">
        <ele>40</ele>
        <time>2012-02-19T09:41:00Z</time>
      </trkpt>
      <trkpt lat="59.971969374" lon="23.3258578304">
        <ele>40</ele>
        <time>2012-02-19T09:41:04Z</time>
      </trkpt>
      <trkpt lat="59.9719667756" lon="23.325845509">
        <ele>40</ele>
        <time>2012-02-19T09:41:05Z</time>
      </trkpt>
      <trkpt lat="59.971951772" lon="23.3258025098">
        <ele>40</ele>
        <time>2012-02-19T09:41:08Z</time>
      </trkpt>
      <trkpt lat="59.9719765824" lon="23.325807958">
        <ele>38</ele>
        <time>2012-02-19T09:41:43Z</time>
      </trkpt>
      <trkpt lat="59.9720195815" lon="23.3257586725">
        <ele>38</ele>
        <time>2012-02-19T09:41:47Z</time>
      </trkpt>
      <trkpt lat="59.9720424641" lon="23.325714416">
        <ele>38</ele>
        <time>2012-02-19T09:41:55Z</time>
      </trkpt>
      <trkpt lat="59.972161068" lon="23.3254418367">
        <ele>38</ele>
        <time>2012-02-19T09:42:09Z</time>
      </trkpt>
      <trkpt lat="59.9722097669" lon="23.3253517312">
        <ele>38</ele>
        <time>2012-02-19T09:42:13Z</time>
      </trkpt>
      <trkpt lat="59.9722991179" lon="23.3251016992">
        <ele>37.8</ele>
        <time>2012-02-19T09:42:18Z</time>
      </trkpt>
      <trkpt lat="59.9724020476" lon="23.3248509965">
        <ele>37</ele>
        <time>2012-02-19T09:42:23Z</time>
      </trkpt>
      <trkpt lat="59.9724793288" lon="23.3246160519">
        <ele>36.4</ele>
        <time>2012-02-19T09:42:28Z</time>
      </trkpt>
      <trkpt lat="59.9725266027" lon="23.3245054946">
        <ele>36.2</ele>
        <time>2012-02-19T09:42:34Z</time>
      </trkpt>
      <trkpt lat="59.97253247" lon="23.3244909939">
        <ele>36</ele>
        <time>2012-02-19T09:42:35Z</time>
      </trkpt>
      <trkpt lat="59.9725499882" lon="23.3244567119">
        <ele>36</ele>
        <time>2012-02-19T09:42:40Z</time>
      </trkpt>
      <trkpt lat="59.9725768941" lon="23.3244097733">
        <ele>35.4</ele>
        <time>2012-02-19T09:42:46Z</time>
      </trkpt>
      <trkpt lat="59.9726077395" lon="23.3243329951">
        <ele>34.6</ele>
        <time>2012-02-19T09:42:53Z</time>
      </trkpt>
      <trkpt lat="59.9726364894" lon="23.3242921753">
        <ele>34.2</ele>
        <time>2012-02-19T09:43:00Z</time>
      </trkpt>
      <trkpt lat="59.9726670833" lon="23.3242511878">
        <ele>34</ele>
        <time>2012-02-19T09:43:07Z</time>
      </trkpt>
      <trkpt lat="59.9727205598" lon="23.3241238667">
        <ele>33.8</ele>
        <time>2012-02-19T09:43:15Z</time>
      </trkpt>
      <trkpt lat="59.9727597033" lon="23.3240062686">
        <ele>33.8</ele>
        <time>2012-02-19T09:43:22Z</time>
      </trkpt>
      <trkpt lat="59.9728025348" lon="23.3238844796">
        <ele>33.8</ele>
        <time>2012-02-19T09:43:28Z</time>
      </trkpt>
      <trkpt lat="59.9728047141" lon="23.323871823">
        <ele>33.8</ele>
        <time>2012-02-19T09:43:30Z</time>
      </trkpt>
      <trkpt lat="59.9728332126" lon="23.3238060251">
        <ele>33.8</ele>
        <time>2012-02-19T09:43:34Z</time>
      </trkpt>
      <trkpt lat="59.972891383" lon="23.3236427456">
        <ele>33.8</ele>
        <time>2012-02-19T09:43:44Z</time>
      </trkpt>
      <trkpt lat="59.9729281795" lon="23.3235724215">
        <ele>33.8</ele>
        <time>2012-02-19T09:43:51Z</time>
      </trkpt>
      <trkpt lat="59.9729792253" lon="23.3234474474">
        <ele>33.8</ele>
        <time>2012-02-19T09:43:57Z</time>
      </trkpt>
      <trkpt lat="59.9730973262" lon="23.3231936434">
        <ele>33.8</ele>
        <time>2012-02-19T09:44:04Z</time>
      </trkpt>
      <trkpt lat="59.9731762837" lon="23.3230147737">
        <ele>33.8</ele>
        <time>2012-02-19T09:44:08Z</time>
      </trkpt>
      <trkpt lat="59.9732787106" lon="23.3227704413">
        <ele>34</ele>
        <time>2012-02-19T09:44:15Z</time>
      </trkpt>
      <trkpt lat="59.973373426" lon="23.3225391847">
        <ele>34.8</ele>
        <time>2012-02-19T09:44:21Z</time>
      </trkpt>
      <trkpt lat="59.9734658784" lon="23.3222868895">
        <ele>35.2</ele>
        <time>2012-02-19T09:44:26Z</time>
      </trkpt>
      <trkpt lat="59.9735509547" lon="23.322083377">
        <ele>35.6</ele>
        <time>2012-02-19T09:44:31Z</time>
      </trkpt>
      <trkpt lat="59.9736469274" lon="23.3218408886">
        <ele>36.4</ele>
        <time>2012-02-19T09:44:37Z</time>
      </trkpt>
      <trkpt lat="59.9737452471" lon="23.3215926167">
        <ele>37</ele>
        <time>2012-02-19T09:44:43Z</time>
      </trkpt>
      <trkpt lat="59.9738384538" lon="23.3212970709">
        <ele>37.4</ele>
        <time>2012-02-19T09:44:50Z</time>
      </trkpt>
      <trkpt lat="59.9739332531" lon="23.3210545826">
        <ele>37.6</ele>
        <time>2012-02-19T09:44:56Z</time>
      </trkpt>
      <trkpt lat="59.9739676189" lon="23.3209944005">
        <ele>37.6</ele>
        <time>2012-02-19T09:44:58Z</time>
      </trkpt>
      <trkpt lat="59.9740411282" lon="23.3208374913">
        <ele>37.8</ele>
        <time>2012-02-19T09:45:03Z</time>
      </trkpt>
      <trkpt lat="59.9740541201" lon="23.3207896307">
        <ele>37.8</ele>
        <time>2012-02-19T09:45:04Z</time>
      </trkpt>
      <trkpt lat="59.9741094407" lon="23.3205224995">
        <ele>37.8</ele>
        <time>2012-02-19T09:45:11Z</time>
      </trkpt>
      <trkpt lat="59.9741535295" lon="23.3202908238">
        <ele>37.8</ele>
        <time>2012-02-19T09:45:16Z</time>
      </trkpt>
      <trkpt lat="59.9741878953" lon="23.3200445636">
        <ele>37.8</ele>
        <time>2012-02-19T09:45:21Z</time>
      </trkpt>
      <trkpt lat="59.974245898" lon="23.3197715651">
        <ele>37.8</ele>
        <time>2012-02-19T09:45:27Z</time>
      </trkpt>
      <trkpt lat="59.9743017215" lon="23.3195389674">
        <ele>38.6</ele>
        <time>2012-02-19T09:45:32Z</time>
      </trkpt>
      <trkpt lat="59.9743722132" lon="23.3193341138">
        <ele>39.2</ele>
        <time>2012-02-19T09:45:37Z</time>
      </trkpt>
      <trkpt lat="59.9744557808" lon="23.3190964031">
        <ele>39.6</ele>
        <time>2012-02-19T09:45:43Z</time>
      </trkpt>
      <trkpt lat="59.9745192318" lon="23.3188270088">
        <ele>40</ele>
        <time>2012-02-19T09:45:49Z</time>
      </trkpt>
      <trkpt lat="59.9745129453" lon="23.3184765616">
        <ele>41</ele>
        <time>2012-02-19T09:45:56Z</time>
      </trkpt>
      <trkpt lat="59.9744821838" lon="23.3181665151">
        <ele>41.6</ele>
        <time>2012-02-19T09:46:02Z</time>
      </trkpt>
      <trkpt lat="59.9744609776" lon="23.3179379407">
        <ele>41.8</ele>
        <time>2012-02-19T09:46:07Z</time>
      </trkpt>
      <trkpt lat="59.9744442138" lon="23.3176515312">
        <ele>42</ele>
        <time>2012-02-19T09:46:12Z</time>
      </trkpt>
      <trkpt lat="59.974483944" lon="23.3174191011">
        <ele>42</ele>
        <time>2012-02-19T09:46:16Z</time>
      </trkpt>
      <trkpt lat="59.9746043919" lon="23.3171431689">
        <ele>42</ele>
        <time>2012-02-19T09:46:23Z</time>
      </trkpt>
      <trkpt lat="59.9747630612" lon="23.3169629581">
        <ele>42</ele>
        <time>2012-02-19T09:46:30Z</time>
      </trkpt>
      <trkpt lat="59.9749365666" lon="23.3168570947">
        <ele>42</ele>
        <time>2012-02-19T09:46:37Z</time>
      </trkpt>
      <trkpt lat="59.9750904582" lon="23.3167831663">
        <ele>41.2</ele>
        <time>2012-02-19T09:46:43Z</time>
      </trkpt>
      <trkpt lat="59.9752503011" lon="23.3167052985">
        <ele>40.6</ele>
        <time>2012-02-19T09:46:49Z</time>
      </trkpt>
      <trkpt lat="59.9755011713" lon="23.3164884587">
        <ele>39.2</ele>
        <time>2012-02-19T09:46:59Z</time>
      </trkpt>
      <trkpt lat="59.9756081244" lon="23.3162603872">
        <ele>38.6</ele>
        <time>2012-02-19T09:47:05Z</time>
      </trkpt>
      <trkpt lat="59.9756782809" lon="23.3159648414">
        <ele>38.4</ele>
        <time>2012-02-19T09:47:12Z</time>
      </trkpt>
      <trkpt lat="59.9757316736" lon="23.3156879873">
        <ele>38.2</ele>
        <time>2012-02-19T09:47:17Z</time>
      </trkpt>
      <trkpt lat="59.9757667099" lon="23.3154462533">
        <ele>38</ele>
        <time>2012-02-19T09:47:22Z</time>
      </trkpt>
      <trkpt lat="59.9758224496" lon="23.3152160025">
        <ele>38</ele>
        <time>2012-02-19T09:47:27Z</time>
      </trkpt>
      <trkpt lat="59.9758776025" lon="23.3149765316">
        <ele>38</ele>
        <time>2012-02-19T09:47:32Z</time>
      </trkpt>
      <trkpt lat="59.9759276424" lon="23.3147301875">
        <ele>38</ele>
        <time>2012-02-19T09:47:37Z</time>
      </trkpt>
      <trkpt lat="59.9759845555" lon="23.3144201411">
        <ele>38</ele>
        <time>2012-02-19T09:47:44Z</time>
      </trkpt>
      <trkpt lat="59.9760181669" lon="23.3141783233">
        <ele>38</ele>
        <time>2012-02-19T09:47:49Z</time>
      </trkpt>
      <trkpt lat="59.9760559693" lon="23.3139290455">
        <ele>38</ele>
        <time>2012-02-19T09:47:54Z</time>
      </trkpt>
      <trkpt lat="59.9761097811" lon="23.3136823662">
        <ele>38</ele>
        <time>2012-02-19T09:47:58Z</time>
      </trkpt>
      <trkpt lat="59.9761785965" lon="23.3134831285">
        <ele>38</ele>
        <time>2012-02-19T09:48:03Z</time>
      </trkpt>
      <trkpt lat="59.9763274591" lon="23.3132444958">
        <ele>38</ele>
        <time>2012-02-19T09:48:10Z</time>
      </trkpt>
      <trkpt lat="59.9764217554" lon="23.3130055278">
        <ele>38</ele>
        <time>2012-02-19T09:48:16Z</time>
      </trkpt>
      <trkpt lat="59.9764113619" lon="23.3127505504">
        <ele>38</ele>
        <time>2012-02-19T09:48:22Z</time>
      </trkpt>
      <trkpt lat="59.9763832825" lon="23.3123959122">
        <ele>38</ele>
        <time>2012-02-19T09:48:28Z</time>
      </trkpt>
      <trkpt lat="59.9763894851" lon="23.3121207344">
        <ele>38</ele>
        <time>2012-02-19T09:48:34Z</time>
      </trkpt>
      <trkpt lat="59.9764095179" lon="23.3119655017">
        <ele>38</ele>
        <time>2012-02-19T09:48:37Z</time>
      </trkpt>
      <trkpt lat="59.9764337415" lon="23.3118243505">
        <ele>38</ele>
        <time>2012-02-19T09:48:40Z</time>
      </trkpt>
      <trkpt lat="59.9764595578" lon="23.3115588957">
        <ele>38</ele>
        <time>2012-02-19T09:48:46Z</time>
      </trkpt>
      <trkpt lat="59.9765428739" lon="23.310980796">
        <ele>38</ele>
        <time>2012-02-19T09:48:58Z</time>
      </trkpt>
      <trkpt lat="59.9766130304" lon="23.3106988289">
        <ele>38</ele>
        <time>2012-02-19T09:49:04Z</time>
      </trkpt>
      <trkpt lat="59.9766744697" lon="23.310481151">
        <ele>38</ele>
        <time>2012-02-19T09:49:10Z</time>
      </trkpt>
      <trkpt lat="59.9767784053" lon="23.3103363117">
        <ele>38</ele>
        <time>2012-02-19T09:49:15Z</time>
      </trkpt>
      <trkpt lat="59.9768630625" lon="23.3101436957">
        <ele>37.6</ele>
        <time>2012-02-19T09:49:20Z</time>
      </trkpt>
      <trkpt lat="59.9769809958" lon="23.3099247605">
        <ele>36.8</ele>
        <time>2012-02-19T09:49:26Z</time>
      </trkpt>
      <trkpt lat="59.977114268" lon="23.3098700267">
        <ele>36</ele>
        <time>2012-02-19T09:49:31Z</time>
      </trkpt>
      <trkpt lat="59.9772715124" lon="23.3097661749">
        <ele>35</ele>
        <time>2012-02-19T09:49:37Z</time>
      </trkpt>
      <trkpt lat="59.9774105682" lon="23.3096252752">
        <ele>34.4</ele>
        <time>2012-02-19T09:49:42Z</time>
      </trkpt>
      <trkpt lat="59.97750696" lon="23.3094974512">
        <ele>34.2</ele>
        <time>2012-02-19T09:49:47Z</time>
      </trkpt>
      <trkpt lat="59.9776252286" lon="23.3093558809">
        <ele>34</ele>
        <time>2012-02-19T09:49:54Z</time>
      </trkpt>
      <trkpt lat="59.9777846524" lon="23.3091915118">
        <ele>33.8</ele>
        <time>2012-02-19T09:50:01Z</time>
      </trkpt>
      <trkpt lat="59.9779007417" lon="23.3090600837">
        <ele>33.8</ele>
        <time>2012-02-19T09:50:07Z</time>
      </trkpt>
      <trkpt lat="59.9780188427" lon="23.3089279011">
        <ele>33.8</ele>
        <time>2012-02-19T09:50:14Z</time>
      </trkpt>
      <trkpt lat="59.9781439006" lon="23.3087958023">
        <ele>33.8</ele>
        <time>2012-02-19T09:50:20Z</time>
      </trkpt>
      <trkpt lat="59.9782754964" lon="23.3086784557">
        <ele>33.8</ele>
        <time>2012-02-19T09:50:26Z</time>
      </trkpt>
      <trkpt lat="59.978432238" lon="23.3085686529">
        <ele>33.8</ele>
        <time>2012-02-19T09:50:32Z</time>
      </trkpt>
      <trkpt lat="59.9785446392" lon="23.3085107339">
        <ele>33.8</ele>
        <time>2012-02-19T09:50:37Z</time>
      </trkpt>
      <trkpt lat="59.9786872154" lon="23.3083895317">
        <ele>33.8</ele>
        <time>2012-02-19T09:50:43Z</time>
      </trkpt>
      <trkpt lat="59.9788174701" lon="23.3082572653">
        <ele>33.8</ele>
        <time>2012-02-19T09:50:50Z</time>
      </trkpt>
      <trkpt lat="59.9789408517" lon="23.3080271821">
        <ele>33.8</ele>
        <time>2012-02-19T09:50:56Z</time>
      </trkpt>
      <trkpt lat="59.979051828" lon="23.3077535969">
        <ele>33.8</ele>
        <time>2012-02-19T09:51:02Z</time>
      </trkpt>
      <trkpt lat="59.979127768" lon="23.3075129526">
        <ele>33.8</ele>
        <time>2012-02-19T09:51:09Z</time>
      </trkpt>
      <trkpt lat="59.9791825018" lon="23.3072296443">
        <ele>33.8</ele>
        <time>2012-02-19T09:51:15Z</time>
      </trkpt>
      <trkpt lat="59.9792021993" lon="23.3069490183">
        <ele>33.8</ele>
        <time>2012-02-19T09:51:20Z</time>
      </trkpt>
      <trkpt lat="59.9792265906" lon="23.3066453421">
        <ele>33.8</ele>
        <time>2012-02-19T09:51:26Z</time>
      </trkpt>
      <trkpt lat="59.9792496408" lon="23.3063755287">
        <ele>33.8</ele>
        <time>2012-02-19T09:51:31Z</time>
      </trkpt>
      <trkpt lat="59.9792802348" lon="23.306131364">
        <ele>33.8</ele>
        <time>2012-02-19T09:51:36Z</time>
      </trkpt>
      <trkpt lat="59.9793307776" lon="23.3059162844">
        <ele>33.8</ele>
        <time>2012-02-19T09:51:40Z</time>
      </trkpt>
      <trkpt lat="59.9793996769" lon="23.3056955052">
        <ele>33.8</ele>
        <time>2012-02-19T09:51:46Z</time>
      </trkpt>
      <trkpt lat="59.9794904528" lon="23.305506661">
        <ele>33.4</ele>
        <time>2012-02-19T09:51:51Z</time>
      </trkpt>
      <trkpt lat="59.9796062907" lon="23.3053985345">
        <ele>32.8</ele>
        <time>2012-02-19T09:51:55Z</time>
      </trkpt>
      <trkpt lat="59.9797183567" lon="23.3054002108">
        <ele>32.2</ele>
        <time>2012-02-19T09:52:00Z</time>
      </trkpt>
      <trkpt lat="59.9798670516" lon="23.3055192338">
        <ele>31</ele>
        <time>2012-02-19T09:52:06Z</time>
      </trkpt>
      <trkpt lat="59.9799834762" lon="23.3056470578">
        <ele>30.4</ele>
        <time>2012-02-19T09:52:10Z</time>
      </trkpt>
      <trkpt lat="59.9801514495" lon="23.3058105048">
        <ele>29.2</ele>
        <time>2012-02-19T09:52:17Z</time>
      </trkpt>
      <trkpt lat="59.9802860628" lon="23.3059389156">
        <ele>28.4</ele>
        <time>2012-02-19T09:52:24Z</time>
      </trkpt>
      <trkpt lat="59.9803536209" lon="23.3060105808">
        <ele>28.2</ele>
        <time>2012-02-19T09:52:27Z</time>
      </trkpt>
      <trkpt lat="59.9804298124" lon="23.3061441045">
        <ele>28</ele>
        <time>2012-02-19T09:52:31Z</time>
      </trkpt>
      <trkpt lat="59.9805810218" lon="23.3063408277">
        <ele>27.6</ele>
        <time>2012-02-19T09:52:37Z</time>
      </trkpt>
      <trkpt lat="59.9806706244" lon="23.3064158457">
        <ele>27.6</ele>
        <time>2012-02-19T09:52:42Z</time>
      </trkpt>
      <trkpt lat="59.9807945927" lon="23.3064548215">
        <ele>27.6</ele>
        <time>2012-02-19T09:52:46Z</time>
      </trkpt>
      <trkpt lat="59.9809283678" lon="23.3064257363">
        <ele>27.6</ele>
        <time>2012-02-19T09:52:52Z</time>
      </trkpt>
      <trkpt lat="59.9810646575" lon="23.306431436">
        <ele>27.6</ele>
        <time>2012-02-19T09:52:57Z</time>
      </trkpt>
      <trkpt lat="59.9812042161" lon="23.3064656341">
        <ele>27.6</ele>
        <time>2012-02-19T09:53:02Z</time>
      </trkpt>
      <trkpt lat="59.9813534977" lon="23.3064823141">
        <ele>27.6</ele>
        <time>2012-02-19T09:53:09Z</time>
      </trkpt>
      <trkpt lat="59.9815278413" lon="23.3065724196">
        <ele>28.6</ele>
        <time>2012-02-19T09:53:16Z</time>
      </trkpt>
      <trkpt lat="59.9816394044" lon="23.3066665483">
        <ele>29</ele>
        <time>2012-02-19T09:53:22Z</time>
      </trkpt>
      <trkpt lat="59.9817906977" lon="23.3068258044">
        <ele>29.2</ele>
        <time>2012-02-19T09:53:28Z</time>
      </trkpt>
      <trkpt lat="59.9819269035" lon="23.3069612559">
        <ele>29.4</ele>
        <time>2012-02-19T09:53:35Z</time>
      </trkpt>
      <trkpt lat="59.9820344433" lon="23.3070449073">
        <ele>29.8</ele>
        <time>2012-02-19T09:53:40Z</time>
      </trkpt>
      <trkpt lat="59.9821436595" lon="23.3071059275">
        <ele>30.6</ele>
        <time>2012-02-19T09:53:45Z</time>
      </trkpt>
      <trkpt lat="59.9822849783" lon="23.3071945242">
        <ele>31.2</ele>
        <time>2012-02-19T09:53:52Z</time>
      </trkpt>
      <trkpt lat="59.9823864831" lon="23.3072392835">
        <ele>32</ele>
        <time>2012-02-19T09:53:56Z</time>
      </trkpt>
      <trkpt lat="59.982563425" lon="23.3073310653">
        <ele>33</ele>
        <time>2012-02-19T09:54:04Z</time>
      </trkpt>
      <trkpt lat="59.9827293028" lon="23.3074096037">
        <ele>34</ele>
        <time>2012-02-19T09:54:10Z</time>
      </trkpt>
      <trkpt lat="59.9828525167" lon="23.3074787544">
        <ele>34.6</ele>
        <time>2012-02-19T09:54:16Z</time>
      </trkpt>
      <trkpt lat="59.9830078334" lon="23.3075489109">
        <ele>35.6</ele>
        <time>2012-02-19T09:54:22Z</time>
      </trkpt>
      <trkpt lat="59.9831346515" lon="23.3076040638">
        <ele>36.6</ele>
        <time>2012-02-19T09:54:27Z</time>
      </trkpt>
      <trkpt lat="59.983330788" lon="23.3077036408">
        <ele>38.2</ele>
        <time>2012-02-19T09:54:35Z</time>
      </trkpt>
      <trkpt lat="59.9833797383" lon="23.3077261043">
        <ele>38.4</ele>
        <time>2012-02-19T09:54:37Z</time>
      </trkpt>
      <trkpt lat="59.9834889544" lon="23.3077845261">
        <ele>39.2</ele>
        <time>2012-02-19T09:54:40Z</time>
      </trkpt>
      <trkpt lat="59.9836156887" lon="23.307833644">
        <ele>40.4</ele>
        <time>2012-02-19T09:54:46Z</time>
      </trkpt>
      <trkpt lat="59.9837796387" lon="23.3079135236">
        <ele>41.2</ele>
        <time>2012-02-19T09:54:52Z</time>
      </trkpt>
      <trkpt lat="59.9839312673" lon="23.3079912238">
        <ele>42.2</ele>
        <time>2012-02-19T09:54:57Z</time>
      </trkpt>
      <trkpt lat="59.9841086283" lon="23.3080828379">
        <ele>43.2</ele>
        <time>2012-02-19T09:55:04Z</time>
      </trkpt>
      <trkpt lat="59.9842242985" lon="23.3081658187">
        <ele>43.6</ele>
        <time>2012-02-19T09:55:10Z</time>
      </trkpt>
      <trkpt lat="59.9843418127" lon="23.3082358914">
        <ele>44</ele>
        <time>2012-02-19T09:55:15Z</time>
      </trkpt>
      <trkpt lat="59.9844656134" lon="23.3082866857">
        <ele>45</ele>
        <time>2012-02-19T09:55:20Z</time>
      </trkpt>
      <trkpt lat="59.9846373585" lon="23.3083368095">
        <ele>45.6</ele>
        <time>2012-02-19T09:55:27Z</time>
      </trkpt>
      <trkpt lat="59.9847644281" lon="23.3083013541">
        <ele>45.8</ele>
        <time>2012-02-19T09:55:32Z</time>
      </trkpt>
      <trkpt lat="59.9848847084" lon="23.3082583549">
        <ele>46</ele>
        <time>2012-02-19T09:55:37Z</time>
      </trkpt>
      <trkpt lat="59.9850056592" lon="23.308300935">
        <ele>46</ele>
        <time>2012-02-19T09:55:42Z</time>
      </trkpt>
      <trkpt lat="59.9851230896" lon="23.3083898669">
        <ele>46.2</ele>
        <time>2012-02-19T09:55:46Z</time>
      </trkpt>
      <trkpt lat="59.9851921565" lon="23.3084853368">
        <ele>46.2</ele>
        <time>2012-02-19T09:55:50Z</time>
      </trkpt>
      <trkpt lat="59.9852494049" lon="23.3087692317">
        <ele>46.2</ele>
        <time>2012-02-19T09:55:55Z</time>
      </trkpt>
      <trkpt lat="59.9853278595" lon="23.3090879116">
        <ele>46.2</ele>
        <time>2012-02-19T09:56:02Z</time>
      </trkpt>
      <trkpt lat="59.9853434498" lon="23.3091449085">
        <ele>46.2</ele>
        <time>2012-02-19T09:56:03Z</time>
      </trkpt>
      <trkpt lat="59.9855969184" lon="23.3095732236">
        <ele>46.2</ele>
        <time>2012-02-19T09:56:16Z</time>
      </trkpt>
      <trkpt lat="59.9856981718" lon="23.3097396043">
        <ele>46.2</ele>
        <time>2012-02-19T09:56:20Z</time>
      </trkpt>
      <trkpt lat="59.9857896183" lon="23.3098922387">
        <ele>46.2</ele>
        <time>2012-02-19T09:56:25Z</time>
      </trkpt>
      <trkpt lat="59.9859199569" lon="23.3100927337">
        <ele>47</ele>
        <time>2012-02-19T09:56:31Z</time>
      </trkpt>
      <trkpt lat="59.9860402371" lon="23.310332037">
        <ele>47.6</ele>
        <time>2012-02-19T09:56:37Z</time>
      </trkpt>
      <trkpt lat="59.9861326895" lon="23.3105258265">
        <ele>47.8</ele>
        <time>2012-02-19T09:56:42Z</time>
      </trkpt>
      <trkpt lat="59.9862393073" lon="23.3106947218">
        <ele>48</ele>
        <time>2012-02-19T09:56:46Z</time>
      </trkpt>
      <trkpt lat="59.9863604257" lon="23.3109144114">
        <ele>48.2</ele>
        <time>2012-02-19T09:56:52Z</time>
      </trkpt>
      <trkpt lat="59.9865054326" lon="23.3111615098">
        <ele>48.2</ele>
        <time>2012-02-19T09:57:00Z</time>
      </trkpt>
      <trkpt lat="59.9866340109" lon="23.31136519">
        <ele>48.2</ele>
        <time>2012-02-19T09:57:06Z</time>
      </trkpt>
      <trkpt lat="59.9867637627" lon="23.3115485859">
        <ele>48.2</ele>
        <time>2012-02-19T09:57:12Z</time>
      </trkpt>
      <trkpt lat="59.9868983761" lon="23.3117084288">
        <ele>48.2</ele>
        <time>2012-02-19T09:57:17Z</time>
      </trkpt>
      <trkpt lat="59.9870412875" lon="23.3118867118">
        <ele>48.2</ele>
        <time>2012-02-19T09:57:24Z</time>
      </trkpt>
      <trkpt lat="59.9871774095" lon="23.3120344009">
        <ele>48.2</ele>
        <time>2012-02-19T09:57:30Z</time>
      </trkpt>
      <trkpt lat="59.987343874" lon="23.3121735404">
        <ele>48.2</ele>
        <time>2012-02-19T09:57:37Z</time>
      </trkpt>
      <trkpt lat="59.9874998612" lon="23.3121838501">
        <ele>48.2</ele>
        <time>2012-02-19T09:57:42Z</time>
      </trkpt>
      <trkpt lat="59.9876539205" lon="23.3121234166">
        <ele>47.2</ele>
        <time>2012-02-19T09:57:49Z</time>
      </trkpt>
      <trkpt lat="59.9878179543" lon="23.3120388433">
        <ele>46.8</ele>
        <time>2012-02-19T09:57:55Z</time>
      </trkpt>
      <trkpt lat="59.9879934713" lon="23.3119631547">
        <ele>46.4</ele>
        <time>2012-02-19T09:58:02Z</time>
      </trkpt>
      <trkpt lat="59.9881828184" lon="23.3119427867">
        <ele>45.6</ele>
        <time>2012-02-19T09:58:09Z</time>
      </trkpt>
      <trkpt lat="59.9883426612" lon="23.3119491569">
        <ele>44.8</ele>
        <time>2012-02-19T09:58:15Z</time>
      </trkpt>
      <trkpt lat="59.988500241" lon="23.3119808405">
        <ele>44.6</ele>
        <time>2012-02-19T09:58:21Z</time>
      </trkpt>
      <trkpt lat="59.9886617602" lon="23.3119831036">
        <ele>44.4</ele>
        <time>2012-02-19T09:58:27Z</time>
      </trkpt>
      <trkpt lat="59.988791512" lon="23.311973213">
        <ele>43.6</ele>
        <time>2012-02-19T09:58:32Z</time>
      </trkpt>
      <trkpt lat="59.9889414642" lon="23.3119823493">
        <ele>42.8</ele>
        <time>2012-02-19T09:58:37Z</time>
      </trkpt>
      <trkpt lat="59.9890815257" lon="23.3119715366">
        <ele>42.6</ele>
        <time>2012-02-19T09:58:42Z</time>
      </trkpt>
      <trkpt lat="59.9892415362" lon="23.3119452175">
        <ele>42.4</ele>
        <time>2012-02-19T09:58:49Z</time>
      </trkpt>
      <trkpt lat="59.9894119402" lon="23.311885706">
        <ele>42.2</ele>
        <time>2012-02-19T09:58:55Z</time>
      </trkpt>
      <trkpt lat="59.9895543487" lon="23.3117883921">
        <ele>42.2</ele>
        <time>2012-02-19T09:59:01Z</time>
      </trkpt>
      <trkpt lat="59.9897017863" lon="23.3116863844">
        <ele>41.6</ele>
        <time>2012-02-19T09:59:07Z</time>
      </trkpt>
      <trkpt lat="59.989821899" lon="23.3115923395">
        <ele>41</ele>
        <time>2012-02-19T09:59:12Z</time>
      </trkpt>
      <trkpt lat="59.9899690013" lon="23.3115029884">
        <ele>40.6</ele>
        <time>2012-02-19T09:59:17Z</time>
      </trkpt>
      <trkpt lat="59.9900854259" lon="23.3114612465">
        <ele>40.2</ele>
        <time>2012-02-19T09:59:22Z</time>
      </trkpt>
      <trkpt lat="59.9902573387" lon="23.3114477517">
        <ele>39.2</ele>
        <time>2012-02-19T09:59:28Z</time>
      </trkpt>
      <trkpt lat="59.9903980708" lon="23.3114808602">
        <ele>38.6</ele>
        <time>2012-02-19T09:59:34Z</time>
      </trkpt>
      <trkpt lat="59.9905684748" lon="23.3115211771">
        <ele>38</ele>
        <time>2012-02-19T09:59:40Z</time>
      </trkpt>
      <trkpt lat="59.9907075305" lon="23.3115406231">
        <ele>37.2</ele>
        <time>2012-02-19T09:59:45Z</time>
      </trkpt>
      <trkpt lat="59.9908306606" lon="23.3115484183">
        <ele>36.6</ele>
        <time>2012-02-19T09:59:50Z</time>
      </trkpt>
      <trkpt lat="59.9909730691" lon="23.3115598177">
        <ele>36</ele>
        <time>2012-02-19T09:59:55Z</time>
      </trkpt>
      <trkpt lat="59.99106988" lon="23.3116153897">
        <ele>35.4</ele>
        <time>2012-02-19T09:59:58Z</time>
      </trkpt>
      <trkpt lat="59.9912145516" lon="23.311748159">
        <ele>34.6</ele>
        <time>2012-02-19T10:00:04Z</time>
      </trkpt>
      <trkpt lat="59.9913368436" lon="23.3118233446">
        <ele>34.4</ele>
        <time>2012-02-19T10:00:10Z</time>
      </trkpt>
      <trkpt lat="59.9914372587" lon="23.3119071636">
        <ele>34.2</ele>
        <time>2012-02-19T10:00:14Z</time>
      </trkpt>
      <trkpt lat="59.9915141207" lon="23.3119508333">
        <ele>33.6</ele>
        <time>2012-02-19T10:00:17Z</time>
      </trkpt>
      <trkpt lat="59.9916418609" lon="23.312026019">
        <ele>32.8</ele>
        <time>2012-02-19T10:00:22Z</time>
      </trkpt>
      <trkpt lat="59.9917425275" lon="23.3120737958">
        <ele>32.6</ele>
        <time>2012-02-19T10:00:25Z</time>
      </trkpt>
      <trkpt lat="59.9919130992" lon="23.3122160366">
        <ele>32.2</ele>
        <time>2012-02-19T10:00:32Z</time>
      </trkpt>
      <trkpt lat="59.9919894583" lon="23.3123554276">
        <ele>32</ele>
        <time>2012-02-19T10:00:37Z</time>
      </trkpt>
      <trkpt lat="59.9920022826" lon="23.3123638934">
        <ele>32</ele>
        <time>2012-02-19T10:00:38Z</time>
      </trkpt>
      <trkpt lat="59.9920012768" lon="23.3123538351">
        <ele>32</ele>
        <time>2012-02-19T10:00:42Z</time>
      </trkpt>
      <trkpt lat="59.9919407595" lon="23.3122692617">
        <ele>32</ele>
        <time>2012-02-19T10:00:47Z</time>
      </trkpt>
      <trkpt lat="59.9918223232" lon="23.3121539268">
        <ele>31.8</ele>
        <time>2012-02-19T10:00:52Z</time>
      </trkpt>
      <trkpt lat="59.9916440402" lon="23.3120675094">
        <ele>31.8</ele>
        <time>2012-02-19T10:00:58Z</time>
      </trkpt>
      <trkpt lat="59.9914785815" lon="23.3120183076">
        <ele>31.8</ele>
        <time>2012-02-19T10:01:05Z</time>
      </trkpt>
      <trkpt lat="59.9913421242" lon="23.3119461395">
        <ele>31.8</ele>
        <time>2012-02-19T10:01:10Z</time>
      </trkpt>
      <trkpt lat="59.9911749053" lon="23.3118023899">
        <ele>31.8</ele>
        <time>2012-02-19T10:01:16Z</time>
      </trkpt>
      <trkpt lat="59.9910572234" lon="23.3116845404">
        <ele>31.8</ele>
        <time>2012-02-19T10:01:22Z</time>
      </trkpt>
      <trkpt lat="59.990912468" lon="23.3115966142">
        <ele>31.8</ele>
        <time>2012-02-19T10:01:27Z</time>
      </trkpt>
      <trkpt lat="59.9907655333" lon="23.3115575546">
        <ele>31.8</ele>
        <time>2012-02-19T10:01:34Z</time>
      </trkpt>
      <trkpt lat="59.9906505336" lon="23.3115412937">
        <ele>31.8</ele>
        <time>2012-02-19T10:01:39Z</time>
      </trkpt>
      <trkpt lat="59.990473927" lon="23.311499468">
        <ele>31.8</ele>
        <time>2012-02-19T10:01:46Z</time>
      </trkpt>
      <trkpt lat="59.9902968174" lon="23.3114740709">
        <ele>31.8</ele>
        <time>2012-02-19T10:01:52Z</time>
      </trkpt>
      <trkpt lat="59.9901135053" lon="23.3115060897">
        <ele>31.8</ele>
        <time>2012-02-19T10:02:00Z</time>
      </trkpt>
      <trkpt lat="59.9899826638" lon="23.3115751566">
        <ele>32.6</ele>
        <time>2012-02-19T10:02:06Z</time>
      </trkpt>
      <trkpt lat="59.989808907" lon="23.3117173974">
        <ele>33.4</ele>
        <time>2012-02-19T10:02:14Z</time>
      </trkpt>
      <trkpt lat="59.9896975954" lon="23.3118124482">
        <ele>34.2</ele>
        <time>2012-02-19T10:02:19Z</time>
      </trkpt>
      <trkpt lat="59.9895575338" lon="23.3119134501">
        <ele>35</ele>
        <time>2012-02-19T10:02:25Z</time>
      </trkpt>
      <trkpt lat="59.9894289555" lon="23.312009339">
        <ele>35.4</ele>
        <time>2012-02-19T10:02:31Z</time>
      </trkpt>
      <trkpt lat="59.9892802606" lon="23.3120929065">
        <ele>35.8</ele>
        <time>2012-02-19T10:02:37Z</time>
      </trkpt>
      <trkpt lat="59.9891236029" lon="23.3121347322">
        <ele>36.8</ele>
        <time>2012-02-19T10:02:43Z</time>
      </trkpt>
      <trkpt lat="59.9889749918" lon="23.3121351513">
        <ele>37.4</ele>
        <time>2012-02-19T10:02:49Z</time>
      </trkpt>
      <trkpt lat="59.9888644345" lon="23.3121328044">
        <ele>37.6</ele>
        <time>2012-02-19T10:02:53Z</time>
      </trkpt>
      <trkpt lat="59.9886661188" lon="23.3121333911">
        <ele>37.8</ele>
        <time>2012-02-19T10:03:01Z</time>
      </trkpt>
      <trkpt lat="59.9885498618" lon="23.3121212374">
        <ele>37.8</ele>
        <time>2012-02-19T10:03:06Z</time>
      </trkpt>
      <trkpt lat="59.98838675" lon="23.3121141966">
        <ele>38</ele>
        <time>2012-02-19T10:03:12Z</time>
      </trkpt>
      <trkpt lat="59.9882233868" lon="23.3121221594">
        <ele>38</ele>
        <time>2012-02-19T10:03:17Z</time>
      </trkpt>
      <trkpt lat="59.9880871809" lon="23.3121409348">
        <ele>38.8</ele>
        <time>2012-02-19T10:03:22Z</time>
      </trkpt>
      <trkpt lat="59.987970002" lon="23.3121711097">
        <ele>39.4</ele>
        <time>2012-02-19T10:03:28Z</time>
      </trkpt>
      <trkpt lat="59.9878641386" lon="23.3122031285">
        <ele>39.6</ele>
        <time>2012-02-19T10:03:32Z</time>
      </trkpt>
      <trkpt lat="59.9877201375" lon="23.3122785656">
        <ele>39.8</ele>
        <time>2012-02-19T10:03:39Z</time>
      </trkpt>
      <trkpt lat="59.9875758012" lon="23.3123462914">
        <ele>40</ele>
        <time>2012-02-19T10:03:45Z</time>
      </trkpt>
      <trkpt lat="59.9874401821" lon="23.3123648154">
        <ele>41</ele>
        <time>2012-02-19T10:03:51Z</time>
      </trkpt>
      <trkpt lat="59.9872704486" lon="23.3122803258">
        <ele>41.6</ele>
        <time>2012-02-19T10:03:57Z</time>
      </trkpt>
      <trkpt lat="59.9869897388" lon="23.3119612269">
        <ele>42</ele>
        <time>2012-02-19T10:04:11Z</time>
      </trkpt>
      <trkpt lat="59.986897454" lon="23.3118655894">
        <ele>42</ele>
        <time>2012-02-19T10:04:15Z</time>
      </trkpt>
      <trkpt lat="59.9867890761" lon="23.3117205825">
        <ele>42</ele>
        <time>2012-02-19T10:04:20Z</time>
      </trkpt>
      <trkpt lat="59.9866764233" lon="23.3115776711">
        <ele>42.2</ele>
        <time>2012-02-19T10:04:25Z</time>
      </trkpt>
      <trkpt lat="59.9865439055" lon="23.3114011483">
        <ele>43.2</ele>
        <time>2012-02-19T10:04:31Z</time>
      </trkpt>
      <trkpt lat="59.9864235414" lon="23.3112075264">
        <ele>43.6</ele>
        <time>2012-02-19T10:04:37Z</time>
      </trkpt>
      <trkpt lat="59.9862859944" lon="23.3109735876">
        <ele>43.8</ele>
        <time>2012-02-19T10:04:44Z</time>
      </trkpt>
      <trkpt lat="59.9861893511" lon="23.310803435">
        <ele>44</ele>
        <time>2012-02-19T10:04:49Z</time>
      </trkpt>
      <trkpt lat="59.9861207872" lon="23.31067888">
        <ele>44</ele>
        <time>2012-02-19T10:04:52Z</time>
      </trkpt>
      <trkpt lat="59.9860035244" lon="23.310450138">
        <ele>44</ele>
        <time>2012-02-19T10:04:59Z</time>
      </trkpt>
      <trkpt lat="59.9858807296" lon="23.310248218">
        <ele>45</ele>
        <time>2012-02-19T10:05:05Z</time>
      </trkpt>
      <trkpt lat="59.985788361" lon="23.3100911412">
        <ele>45.6</ele>
        <time>2012-02-19T10:05:10Z</time>
      </trkpt>
      <trkpt lat="59.9856912986" lon="23.3099088349">
        <ele>46.2</ele>
        <time>2012-02-19T10:05:15Z</time>
      </trkpt>
      <trkpt lat="59.9855725271" lon="23.3097122793">
        <ele>47.2</ele>
        <time>2012-02-19T10:05:22Z</time>
      </trkpt>
      <trkpt lat="59.9854533365" lon="23.3095182383">
        <ele>47.8</ele>
        <time>2012-02-19T10:05:28Z</time>
      </trkpt>
      <trkpt lat="59.9853705233" lon="23.3093005604">
        <ele>48</ele>
        <time>2012-02-19T10:05:33Z</time>
      </trkpt>
      <trkpt lat="59.9853049769" lon="23.3089413121">
        <ele>49.2</ele>
        <time>2012-02-19T10:05:40Z</time>
      </trkpt>
      <trkpt lat="59.9852976846" lon="23.3088875003">
        <ele>49.2</ele>
        <time>2012-02-19T10:05:41Z</time>
      </trkpt>
      <trkpt lat="59.9851856186" lon="23.3085793817">
        <ele>49.8</ele>
        <time>2012-02-19T10:05:48Z</time>
      </trkpt>
      <trkpt lat="59.9850790008" lon="23.3084679862">
        <ele>50.2</ele>
        <time>2012-02-19T10:05:52Z</time>
      </trkpt>
      <trkpt lat="59.9849499196" lon="23.3084419185">
        <ele>50.2</ele>
        <time>2012-02-19T10:05:58Z</time>
      </trkpt>
      <trkpt lat="59.9848509293" lon="23.3084552458">
        <ele>50.4</ele>
        <time>2012-02-19T10:06:02Z</time>
      </trkpt>
      <trkpt lat="59.9847341695" lon="23.3084860073">
        <ele>50.4</ele>
        <time>2012-02-19T10:06:07Z</time>
      </trkpt>
      <trkpt lat="59.9846895778" lon="23.3084950598">
        <ele>50.4</ele>
        <time>2012-02-19T10:06:09Z</time>
      </trkpt>
      <trkpt lat="59.9846061779" lon="23.3084747756">
        <ele>50.4</ele>
        <time>2012-02-19T10:06:13Z</time>
      </trkpt>
      <trkpt lat="59.9845786014" lon="23.308469495">
        <ele>50.4</ele>
        <time>2012-02-19T10:06:14Z</time>
      </trkpt>
      <trkpt lat="59.984468128" lon="23.3084240651">
        <ele>50.4</ele>
        <time>2012-02-19T10:06:18Z</time>
      </trkpt>
      <trkpt lat="59.9843379571" lon="23.3083951475">
        <ele>50.4</ele>
        <time>2012-02-19T10:06:22Z</time>
      </trkpt>
      <trkpt lat="59.9842092949" lon="23.30832826">
        <ele>50.4</ele>
        <time>2012-02-19T10:06:28Z</time>
      </trkpt>
      <trkpt lat="59.9840970613" lon="23.3082460335">
        <ele>50.4</ele>
        <time>2012-02-19T10:06:33Z</time>
      </trkpt>
      <trkpt lat="59.9839829836" lon="23.3081631365">
        <ele>50.4</ele>
        <time>2012-02-19T10:06:38Z</time>
      </trkpt>
      <trkpt lat="59.9838756115" lon="23.3081191316">
        <ele>50.4</ele>
        <time>2012-02-19T10:06:42Z</time>
      </trkpt>
      <trkpt lat="59.9837218874" lon="23.3080332171">
        <ele>50.4</ele>
        <time>2012-02-19T10:06:48Z</time>
      </trkpt>
      <trkpt lat="59.9836687462" lon="23.3080289423">
        <ele>50.4</ele>
        <time>2012-02-19T10:06:50Z</time>
      </trkpt>
      <trkpt lat="59.9834522417" lon="23.3079001125">
        <ele>50.4</ele>
        <time>2012-02-19T10:06:59Z</time>
      </trkpt>
      <trkpt lat="59.9832545965" lon="23.30778922">
        <ele>50.4</ele>
        <time>2012-02-19T10:07:07Z</time>
      </trkpt>
      <trkpt lat="59.9831028841" lon="23.3077170518">
        <ele>50.4</ele>
        <time>2012-02-19T10:07:13Z</time>
      </trkpt>
      <trkpt lat="59.9829226732" lon="23.3076323108">
        <ele>49.8</ele>
        <time>2012-02-19T10:07:20Z</time>
      </trkpt>
      <trkpt lat="59.9827487488" lon="23.3075529342">
        <ele>49</ele>
        <time>2012-02-19T10:07:27Z</time>
      </trkpt>
      <trkpt lat="59.9826028199" lon="23.3074964402">
        <ele>48.8</ele>
        <time>2012-02-19T10:07:33Z</time>
      </trkpt>
      <trkpt lat="59.9824366069" lon="23.3074339112">
        <ele>48.6</ele>
        <time>2012-02-19T10:07:39Z</time>
      </trkpt>
      <trkpt lat="59.9822861518" lon="23.3073593961">
        <ele>47.4</ele>
        <time>2012-02-19T10:07:45Z</time>
      </trkpt>
      <trkpt lat="59.9821949567" lon="23.3073025669">
        <ele>47</ele>
        <time>2012-02-19T10:07:49Z</time>
      </trkpt>
      <trkpt lat="59.9820903506" lon="23.3072285547">
        <ele>46.8</ele>
        <time>2012-02-19T10:07:53Z</time>
      </trkpt>
      <trkpt lat="59.9818217945" lon="23.3070078593">
        <ele>46.2</ele>
        <time>2012-02-19T10:08:05Z</time>
      </trkpt>
      <trkpt lat="59.9816752789" lon="23.306921861">
        <ele>45.2</ele>
        <time>2012-02-19T10:08:11Z</time>
      </trkpt>
      <trkpt lat="59.9815503048" lon="23.3068432387">
        <ele>45</ele>
        <time>2012-02-19T10:08:15Z</time>
      </trkpt>
      <trkpt lat="59.9813879474" lon="23.3067574919">
        <ele>44.6</ele>
        <time>2012-02-19T10:08:21Z</time>
      </trkpt>
      <trkpt lat="59.9812590337" lon="23.3067106371">
        <ele>43.8</ele>
        <time>2012-02-19T10:08:26Z</time>
      </trkpt>
      <trkpt lat="59.9811398431" lon="23.3066612677">
        <ele>43.2</ele>
        <time>2012-02-19T10:08:31Z</time>
      </trkpt>
      <trkpt lat="59.9809910644" lon="23.3066309252">
        <ele>42.8</ele>
        <time>2012-02-19T10:08:37Z</time>
      </trkpt>
      <trkpt lat="59.9809278649" lon="23.3066304223">
        <ele>42.6</ele>
        <time>2012-02-19T10:08:39Z</time>
      </trkpt>
      <trkpt lat="59.9807619871" lon="23.3066310929">
        <ele>41.8</ele>
        <time>2012-02-19T10:08:45Z</time>
      </trkpt>
      <trkpt lat="59.980639276" lon="23.3065355392">
        <ele>41</ele>
        <time>2012-02-19T10:08:50Z</time>
      </trkpt>
      <trkpt lat="59.9804903297" lon="23.3063305179">
        <ele>40.6</ele>
        <time>2012-02-19T10:08:57Z</time>
      </trkpt>
      <trkpt lat="59.9803631763" lon="23.3061360578">
        <ele>39.6</ele>
        <time>2012-02-19T10:09:03Z</time>
      </trkpt>
      <trkpt lat="59.9803193389" lon="23.3060657337">
        <ele>39.2</ele>
        <time>2012-02-19T10:09:05Z</time>
      </trkpt>
      <trkpt lat="59.9802210192" lon="23.3059445314">
        <ele>38.8</ele>
        <time>2012-02-19T10:09:09Z</time>
      </trkpt>
      <trkpt lat="59.9800461728" lon="23.3057343134">
        <ele>37.6</ele>
        <time>2012-02-19T10:09:17Z</time>
      </trkpt>
      <trkpt lat="59.9798857432" lon="23.3055602213">
        <ele>36.8</ele>
        <time>2012-02-19T10:09:24Z</time>
      </trkpt>
      <trkpt lat="59.9796991621" lon="23.305458968">
        <ele>35.4</ele>
        <time>2012-02-19T10:09:32Z</time>
      </trkpt>
      <trkpt lat="59.9795762835" lon="23.3055549407">
        <ele>34.8</ele>
        <time>2012-02-19T10:09:38Z</time>
      </trkpt>
      <trkpt lat="59.9795010978" lon="23.305709503">
        <ele>34.4</ele>
        <time>2012-02-19T10:09:43Z</time>
      </trkpt>
      <trkpt lat="59.9794309413" lon="23.3058795717">
        <ele>34.2</ele>
        <time>2012-02-19T10:09:48Z</time>
      </trkpt>
      <trkpt lat="59.9793044585" lon="23.3063659734">
        <ele>34</ele>
        <time>2012-02-19T10:09:59Z</time>
      </trkpt>
      <trkpt lat="59.979281995" lon="23.306632434">
        <ele>34</ele>
        <time>2012-02-19T10:10:05Z</time>
      </trkpt>
      <trkpt lat="59.9792322903" lon="23.3068833042">
        <ele>34</ele>
        <time>2012-02-19T10:10:10Z</time>
      </trkpt>
      <trkpt lat="59.9792168676" lon="23.3069341824">
        <ele>34</ele>
        <time>2012-02-19T10:10:11Z</time>
      </trkpt>
      <trkpt lat="59.9791967511" lon="23.3072427201">
        <ele>34</ele>
        <time>2012-02-19T10:10:18Z</time>
      </trkpt>
      <trkpt lat="59.9791959129" lon="23.3072806063">
        <ele>34</ele>
        <time>2012-02-19T10:10:19Z</time>
      </trkpt>
      <trkpt lat="59.9791845973" lon="23.3074323187">
        <ele>34</ele>
        <time>2012-02-19T10:10:22Z</time>
      </trkpt>
      <trkpt lat="59.9791270137" lon="23.3076725439">
        <ele>33.8</ele>
        <time>2012-02-19T10:10:29Z</time>
      </trkpt>
      <trkpt lat="59.979068508" lon="23.3078738772">
        <ele>33.8</ele>
        <time>2012-02-19T10:10:34Z</time>
      </trkpt>
      <trkpt lat="59.978961052" lon="23.3081084027">
        <ele>33.8</ele>
        <time>2012-02-19T10:10:40Z</time>
      </trkpt>
      <trkpt lat="59.9789016244" lon="23.3082097399">
        <ele>33.8</ele>
        <time>2012-02-19T10:10:44Z</time>
      </trkpt>
      <trkpt lat="59.9787867085" lon="23.3083450238">
        <ele>34.4</ele>
        <time>2012-02-19T10:10:50Z</time>
      </trkpt>
      <trkpt lat="59.9786423722" lon="23.3084515577">
        <ele>35</ele>
        <time>2012-02-19T10:10:56Z</time>
      </trkpt>
      <trkpt lat="59.9784787575" lon="23.3085507156">
        <ele>35.6</ele>
        <time>2012-02-19T10:11:03Z</time>
      </trkpt>
      <trkpt lat="59.9783663562" lon="23.3086479456">
        <ele>35.8</ele>
        <time>2012-02-19T10:11:08Z</time>
      </trkpt>
      <trkpt lat="59.978291422" lon="23.3087082953">
        <ele>35.8</ele>
        <time>2012-02-19T10:11:12Z</time>
      </trkpt>
      <trkpt lat="59.9781792722" lon="23.3088247199">
        <ele>36</ele>
        <time>2012-02-19T10:11:17Z</time>
      </trkpt>
      <trkpt lat="59.9780296553" lon="23.3089871611">
        <ele>36</ele>
        <time>2012-02-19T10:11:23Z</time>
      </trkpt>
      <trkpt lat="59.9779097103" lon="23.3091089501">
        <ele>36</ele>
        <time>2012-02-19T10:11:29Z</time>
      </trkpt>
      <trkpt lat="59.9777956327" lon="23.3092381152">
        <ele>36</ele>
        <time>2012-02-19T10:11:34Z</time>
      </trkpt>
      <trkpt lat="59.9776331914" lon="23.3094070943">
        <ele>35.6</ele>
        <time>2012-02-19T10:11:41Z</time>
      </trkpt>
      <trkpt lat="59.9774945548" lon="23.3095976987">
        <ele>35</ele>
        <time>2012-02-19T10:11:46Z</time>
      </trkpt>
      <trkpt lat="59.977387937" lon="23.3097280373">
        <ele>34.6</ele>
        <time>2012-02-19T10:11:50Z</time>
      </trkpt>
      <trkpt lat="59.9772246576" lon="23.309838846">
        <ele>34.2</ele>
        <time>2012-02-19T10:11:56Z</time>
      </trkpt>
      <trkpt lat="59.9770820815" lon="23.3098850303">
        <ele>33.8</ele>
        <time>2012-02-19T10:12:01Z</time>
      </trkpt>
      <trkpt lat="59.9770158645" lon="23.309953678">
        <ele>33.2</ele>
        <time>2012-02-19T10:12:04Z</time>
      </trkpt>
      <trkpt lat="59.9769555986" lon="23.3100649896">
        <ele>32.8</ele>
        <time>2012-02-19T10:12:07Z</time>
      </trkpt>
      <trkpt lat="59.9768508249" lon="23.3102894569">
        <ele>32.4</ele>
        <time>2012-02-19T10:12:13Z</time>
      </trkpt>
      <trkpt lat="59.9767452129" lon="23.3104348829">
        <ele>32</ele>
        <time>2012-02-19T10:12:18Z</time>
      </trkpt>
      <trkpt lat="59.976677571" lon="23.3106730965">
        <ele>32</ele>
        <time>2012-02-19T10:12:24Z</time>
      </trkpt>
      <trkpt lat="59.9766506651" lon="23.3107702427">
        <ele>31.8</ele>
        <time>2012-02-19T10:12:26Z</time>
      </trkpt>
      <trkpt lat="59.9765805924" lon="23.3110541377">
        <ele>31.8</ele>
        <time>2012-02-19T10:12:32Z</time>
      </trkpt>
      <trkpt lat="59.976502054" lon="23.3114092788">
        <ele>31.8</ele>
        <time>2012-02-19T10:12:39Z</time>
      </trkpt>
      <trkpt lat="59.9764724659" lon="23.3116829478">
        <ele>31.8</ele>
        <time>2012-02-19T10:12:44Z</time>
      </trkpt>
      <trkpt lat="59.9764547801" lon="23.3118916571">
        <ele>32.4</ele>
        <time>2012-02-19T10:12:48Z</time>
      </trkpt>
      <trkpt lat="59.9764248567" lon="23.312167254">
        <ele>33</ele>
        <time>2012-02-19T10:12:53Z</time>
      </trkpt>
      <trkpt lat="59.976411781" lon="23.3124296075">
        <ele>33.4</ele>
        <time>2012-02-19T10:12:58Z</time>
      </trkpt>
      <trkpt lat="59.9764507568" lon="23.3126418372">
        <ele>33.8</ele>
        <time>2012-02-19T10:13:02Z</time>
      </trkpt>
      <trkpt lat="59.9764589711" lon="23.3127010134">
        <ele>34</ele>
        <time>2012-02-19T10:13:03Z</time>
      </trkpt>
      <trkpt lat="59.9764557859" lon="23.3128562462">
        <ele>34.6</ele>
        <time>2012-02-19T10:13:07Z</time>
      </trkpt>
      <trkpt lat="59.9764414529" lon="23.3130547296">
        <ele>35</ele>
        <time>2012-02-19T10:13:11Z</time>
      </trkpt>
      <trkpt lat="59.9763739786" lon="23.3131939529">
        <ele>35.2</ele>
        <time>2012-02-19T10:13:15Z</time>
      </trkpt>
      <trkpt lat="59.976245065" lon="23.3133857308">
        <ele>35.6</ele>
        <time>2012-02-19T10:13:22Z</time>
      </trkpt>
      <trkpt lat="59.9761587314" lon="23.313571809">
        <ele>35.6</ele>
        <time>2012-02-19T10:13:27Z</time>
      </trkpt>
      <trkpt lat="59.9760718949" lon="23.3138986193">
        <ele>35.8</ele>
        <time>2012-02-19T10:13:33Z</time>
      </trkpt>
      <trkpt lat="59.9760154847" lon="23.314180754">
        <ele>35.8</ele>
        <time>2012-02-19T10:13:39Z</time>
      </trkpt>
      <trkpt lat="59.9760126349" lon="23.3142292852">
        <ele>36</ele>
        <time>2012-02-19T10:13:40Z</time>
      </trkpt>
      <trkpt lat="59.9759779338" lon="23.3144977575">
        <ele>36.8</ele>
        <time>2012-02-19T10:13:45Z</time>
      </trkpt>
      <trkpt lat="59.9759303246" lon="23.314779976">
        <ele>37.2</ele>
        <time>2012-02-19T10:13:51Z</time>
      </trkpt>
      <trkpt lat="59.9758784407" lon="23.3149892721">
        <ele>37.4</ele>
        <time>2012-02-19T10:13:55Z</time>
      </trkpt>
      <trkpt lat="59.9758438234" lon="23.3151937904">
        <ele>37.6</ele>
        <time>2012-02-19T10:13:59Z</time>
      </trkpt>
      <trkpt lat="59.9757747566" lon="23.3155568943">
        <ele>38.8</ele>
        <time>2012-02-19T10:14:07Z</time>
      </trkpt>
      <trkpt lat="59.97571667" lon="23.3158709641">
        <ele>39.4</ele>
        <time>2012-02-19T10:14:13Z</time>
      </trkpt>
      <trkpt lat="59.9756678035" lon="23.3161129496">
        <ele>39.6</ele>
        <time>2012-02-19T10:14:18Z</time>
      </trkpt>
      <trkpt lat="59.9755941266" lon="23.3163458826">
        <ele>40</ele>
        <time>2012-02-19T10:14:23Z</time>
      </trkpt>
      <trkpt lat="59.975489772" lon="23.3165446174">
        <ele>41</ele>
        <time>2012-02-19T10:14:29Z</time>
      </trkpt>
      <trkpt lat="59.9753368861" lon="23.3166870259">
        <ele>41.4</ele>
        <time>2012-02-19T10:14:35Z</time>
      </trkpt>
      <trkpt lat="59.9751819886" lon="23.3167732757">
        <ele>41.6</ele>
        <time>2012-02-19T10:14:42Z</time>
      </trkpt>
      <trkpt lat="59.975018793" lon="23.3168428454">
        <ele>41.8</ele>
        <time>2012-02-19T10:14:49Z</time>
      </trkpt>
      <trkpt lat="59.9747423579" lon="23.3170225534">
        <ele>40.6</ele>
        <time>2012-02-19T10:15:01Z</time>
      </trkpt>
      <trkpt lat="59.974612187" lon="23.3172031833">
        <ele>40.2</ele>
        <time>2012-02-19T10:15:07Z</time>
      </trkpt>
      <trkpt lat="59.9745212434" lon="23.3174484377">
        <ele>40</ele>
        <time>2012-02-19T10:15:13Z</time>
      </trkpt>
      <trkpt lat="59.9744675993" lon="23.317673827">
        <ele>40</ele>
        <time>2012-02-19T10:15:18Z</time>
      </trkpt>
      <trkpt lat="59.9744815132" lon="23.317711797">
        <ele>40</ele>
        <time>2012-02-19T10:15:19Z</time>
      </trkpt>
      <trkpt lat="59.974476987" lon="23.3178275511">
        <ele>40</ele>
        <time>2012-02-19T10:15:22Z</time>
      </trkpt>
      <trkpt lat="59.9744794177" lon="23.3178542893">
        <ele>40</ele>
        <time>2012-02-19T10:15:23Z</time>
      </trkpt>
      <trkpt lat="59.9744897275" lon="23.3178976237">
        <ele>40</ele>
        <time>2012-02-19T10:15:24Z</time>
      </trkpt>
      <trkpt lat="59.9745016298" lon="23.3181185706">
        <ele>39.8</ele>
        <time>2012-02-19T10:15:29Z</time>
      </trkpt>
      <trkpt lat="59.974504312" lon="23.3182288764">
        <ele>39.8</ele>
        <time>2012-02-19T10:15:31Z</time>
      </trkpt>
      <trkpt lat="59.9745290386" lon="23.3185176329">
        <ele>39.8</ele>
        <time>2012-02-19T10:15:37Z</time>
      </trkpt>
      <trkpt lat="59.9745480655" lon="23.3186916411">
        <ele>39.8</ele>
        <time>2012-02-19T10:15:41Z</time>
      </trkpt>
      <trkpt lat="59.9745294577" lon="23.3188303616">
        <ele>40.2</ele>
        <time>2012-02-19T10:15:44Z</time>
      </trkpt>
      <trkpt lat="59.9744785795" lon="23.3190568405">
        <ele>41</ele>
        <time>2012-02-19T10:15:50Z</time>
      </trkpt>
      <trkpt lat="59.9744610614" lon="23.3190959002">
        <ele>41</ele>
        <time>2012-02-19T10:15:51Z</time>
      </trkpt>
      <trkpt lat="59.974378332" lon="23.3193207865">
        <ele>41.4</ele>
        <time>2012-02-19T10:15:56Z</time>
      </trkpt>
      <trkpt lat="59.9743069182" lon="23.3195128997">
        <ele>41.6</ele>
        <time>2012-02-19T10:16:00Z</time>
      </trkpt>
      <trkpt lat="59.9742360074" lon="23.319858234">
        <ele>41.8</ele>
        <time>2012-02-19T10:16:07Z</time>
      </trkpt>
      <trkpt lat="59.9742022283" lon="23.3200667756">
        <ele>42.4</ele>
        <time>2012-02-19T10:16:11Z</time>
      </trkpt>
      <trkpt lat="59.9741908289" lon="23.3201517681">
        <ele>42.6</ele>
        <time>2012-02-19T10:16:13Z</time>
      </trkpt>
      <trkpt lat="59.974173646" lon="23.3203409476">
        <ele>43</ele>
        <time>2012-02-19T10:16:17Z</time>
      </trkpt>
      <trkpt lat="59.9741289705" lon="23.3206259322">
        <ele>43.4</ele>
        <time>2012-02-19T10:16:22Z</time>
      </trkpt>
      <trkpt lat="59.9740604904" lon="23.3208794008">
        <ele>43.6</ele>
        <time>2012-02-19T10:16:27Z</time>
      </trkpt>
      <trkpt lat="59.9739877355" lon="23.3210031177">
        <ele>43.8</ele>
        <time>2012-02-19T10:16:30Z</time>
      </trkpt>
      <trkpt lat="59.9739180819" lon="23.3211700013">
        <ele>43.8</ele>
        <time>2012-02-19T10:16:34Z</time>
      </trkpt>
      <trkpt lat="59.9738353525" lon="23.3214186085">
        <ele>43.8</ele>
        <time>2012-02-19T10:16:40Z</time>
      </trkpt>
      <trkpt lat="59.9737683812" lon="23.3215973106">
        <ele>43.8</ele>
        <time>2012-02-19T10:16:44Z</time>
      </trkpt>
      <trkpt lat="59.9736879149" lon="23.3218187604">
        <ele>44</ele>
        <time>2012-02-19T10:16:49Z</time>
      </trkpt>
      <trkpt lat="59.9736074487" lon="23.322015735">
        <ele>44</ele>
        <time>2012-02-19T10:16:54Z</time>
      </trkpt>
      <trkpt lat="59.9735113083" lon="23.3222609056">
        <ele>44</ele>
        <time>2012-02-19T10:17:00Z</time>
      </trkpt>
      <trkpt lat="59.9734406489" lon="23.3224466485">
        <ele>44</ele>
        <time>2012-02-19T10:17:04Z</time>
      </trkpt>
      <trkpt lat="59.9733270741" lon="23.3227326389">
        <ele>44</ele>
        <time>2012-02-19T10:17:12Z</time>
      </trkpt>
      <trkpt lat="59.9732406567" lon="23.3229326311">
        <ele>44</ele>
        <time>2012-02-19T10:17:17Z</time>
      </trkpt>
      <trkpt lat="59.9731528982" lon="23.3231082319">
        <ele>43.8</ele>
        <time>2012-02-19T10:17:21Z</time>
      </trkpt>
      <trkpt lat="59.9730674029" lon="23.3233062124">
        <ele>43.2</ele>
        <time>2012-02-19T10:17:25Z</time>
      </trkpt>
      <trkpt lat="59.9729484637" lon="23.3235825636">
        <ele>42.6</ele>
        <time>2012-02-19T10:17:31Z</time>
      </trkpt>
      <trkpt lat="59.9728386608" lon="23.323842151">
        <ele>42.2</ele>
        <time>2012-02-19T10:17:37Z</time>
      </trkpt>
      <trkpt lat="59.9727603739" lon="23.3240534587">
        <ele>42.2</ele>
        <time>2012-02-19T10:17:42Z</time>
      </trkpt>
      <trkpt lat="59.97267974" lon="23.3242526965">
        <ele>42</ele>
        <time>2012-02-19T10:17:47Z</time>
      </trkpt>
      <trkpt lat="59.9726057278" lon="23.3244222623">
        <ele>42</ele>
        <time>2012-02-19T10:17:51Z</time>
      </trkpt>
      <trkpt lat="59.9725024628" lon="23.3246879686">
        <ele>42</ele>
        <time>2012-02-19T10:17:57Z</time>
      </trkpt>
      <trkpt lat="59.9723792489" lon="23.3249965901">
        <ele>42.4</ele>
        <time>2012-02-19T10:18:05Z</time>
      </trkpt>
      <trkpt lat="59.9722717929" lon="23.325230529">
        <ele>43</ele>
        <time>2012-02-19T10:18:11Z</time>
      </trkpt>
      <trkpt lat="59.9722039833" lon="23.3254088958">
        <ele>43.4</ele>
        <time>2012-02-19T10:18:15Z</time>
      </trkpt>
      <trkpt lat="59.9721350003" lon="23.3255479515">
        <ele>43.6</ele>
        <time>2012-02-19T10:18:19Z</time>
      </trkpt>
      <trkpt lat="59.9720723037" lon="23.3257266536">
        <ele>43.8</ele>
        <time>2012-02-19T10:18:24Z</time>
      </trkpt>
      <trkpt lat="59.9719852996" lon="23.3259557309">
        <ele>43.8</ele>
        <time>2012-02-19T10:18:30Z</time>
      </trkpt>
      <trkpt lat="59.9719016482" lon="23.3262920966">
        <ele>43.8</ele>
        <time>2012-02-19T10:18:37Z</time>
      </trkpt>
      <trkpt lat="59.9718595711" lon="23.326544308">
        <ele>43.8</ele>
        <time>2012-02-19T10:18:42Z</time>
      </trkpt>
      <trkpt lat="59.9718220202" lon="23.3267575435">
        <ele>44</ele>
        <time>2012-02-19T10:18:46Z</time>
      </trkpt>
      <trkpt lat="59.9717745786" lon="23.327009671">
        <ele>44</ele>
        <time>2012-02-19T10:18:51Z</time>
      </trkpt>
      <trkpt lat="59.9717387041" lon="23.3272851841">
        <ele>44</ele>
        <time>2012-02-19T10:18:57Z</time>
      </trkpt>
      <trkpt lat="59.9717170788" lon="23.3275731024">
        <ele>44</ele>
        <time>2012-02-19T10:19:04Z</time>
      </trkpt>
      <trkpt lat="59.9716801984" lon="23.3278231344">
        <ele>44</ele>
        <time>2012-02-19T10:19:09Z</time>
      </trkpt>
      <trkpt lat="59.9716033364" lon="23.32811231">
        <ele>44</ele>
        <time>2012-02-19T10:19:15Z</time>
      </trkpt>
      <trkpt lat="59.9714854031" lon="23.328384135">
        <ele>44</ele>
        <time>2012-02-19T10:19:22Z</time>
      </trkpt>
      <trkpt lat="59.9714172582" lon="23.3285588976">
        <ele>44</ele>
        <time>2012-02-19T10:19:26Z</time>
      </trkpt>
      <trkpt lat="59.9713035158" lon="23.3287950157">
        <ele>44</ele>
        <time>2012-02-19T10:19:32Z</time>
      </trkpt>
      <trkpt lat="59.9711847443" lon="23.329071367">
        <ele>44</ele>
        <time>2012-02-19T10:19:40Z</time>
      </trkpt>
      <trkpt lat="59.9711296752" lon="23.329300109">
        <ele>44</ele>
        <time>2012-02-19T10:19:45Z</time>
      </trkpt>
      <trkpt lat="59.9710931301" lon="23.32962013">
        <ele>44.6</ele>
        <time>2012-02-19T10:19:52Z</time>
      </trkpt>
      <trkpt lat="59.9711219639" lon="23.3299866705">
        <ele>45.4</ele>
        <time>2012-02-19T10:20:00Z</time>
      </trkpt>
      <trkpt lat="59.971126071" lon="23.330039225">
        <ele>45.4</ele>
        <time>2012-02-19T10:20:01Z</time>
      </trkpt>
      <trkpt lat="59.9711538989" lon="23.3304034185">
        <ele>45.6</ele>
        <time>2012-02-19T10:20:08Z</time>
      </trkpt>
      <trkpt lat="59.9711979039" lon="23.3306303166">
        <ele>45.8</ele>
        <time>2012-02-19T10:20:13Z</time>
      </trkpt>
      <trkpt lat="59.9712309286" lon="23.3308897364">
        <ele>45.8</ele>
        <time>2012-02-19T10:20:18Z</time>
      </trkpt>
      <trkpt lat="59.9712388076" lon="23.3311499944">
        <ele>45.8</ele>
        <time>2012-02-19T10:20:23Z</time>
      </trkpt>
      <trkpt lat="59.9712352033" lon="23.3313576979">
        <ele>46</ele>
        <time>2012-02-19T10:20:27Z</time>
      </trkpt>
      <trkpt lat="59.9712337784" lon="23.3316242423">
        <ele>46</ele>
        <time>2012-02-19T10:20:32Z</time>
      </trkpt>
      <trkpt lat="59.9712613549" lon="23.3319202072">
        <ele>46</ele>
        <time>2012-02-19T10:20:38Z</time>
      </trkpt>
      <trkpt lat="59.9713477723" lon="23.3322057785">
        <ele>46</ele>
        <time>2012-02-19T10:20:44Z</time>
      </trkpt>
      <trkpt lat="59.9714368719" lon="23.332463941">
        <ele>46</ele>
        <time>2012-02-19T10:20:50Z</time>
      </trkpt>
      <trkpt lat="59.9715026698" lon="23.3328153941">
        <ele>46</ele>
        <time>2012-02-19T10:20:57Z</time>
      </trkpt>
      <trkpt lat="59.9713959682" lon="23.33340724">
        <ele>46</ele>
        <time>2012-02-19T10:21:09Z</time>
      </trkpt>
      <trkpt lat="59.9713797073" lon="23.3337482157">
        <ele>46</ele>
        <time>2012-02-19T10:21:15Z</time>
      </trkpt>
      <trkpt lat="59.9713854908" lon="23.3341091403">
        <ele>46</ele>
        <time>2012-02-19T10:21:22Z</time>
      </trkpt>
      <trkpt lat="59.9713948785" lon="23.3343698174">
        <ele>46</ele>
        <time>2012-02-19T10:21:27Z</time>
      </trkpt>
      <trkpt lat="59.9713958844" lon="23.3346467554">
        <ele>46</ele>
        <time>2012-02-19T10:21:32Z</time>
      </trkpt>
      <trkpt lat="59.9713942918" lon="23.3349142218">
        <ele>46</ele>
        <time>2012-02-19T10:21:37Z</time>
      </trkpt>
      <trkpt lat="59.9713795397" lon="23.3352829416">
        <ele>46</ele>
        <time>2012-02-19T10:21:44Z</time>
      </trkpt>
      <trkpt lat="59.9713767736" lon="23.3355562754">
        <ele>46</ele>
        <time>2012-02-19T10:21:49Z</time>
      </trkpt>
      <trkpt lat="59.9713874186" lon="23.335815779">
        <ele>46</ele>
        <time>2012-02-19T10:21:54Z</time>
      </trkpt>
      <trkpt lat="59.9714232932" lon="23.3361866781">
        <ele>46</ele>
        <time>2012-02-19T10:22:01Z</time>
      </trkpt>
      <trkpt lat="59.9714451699" lon="23.3364981495">
        <ele>46</ele>
        <time>2012-02-19T10:22:07Z</time>
      </trkpt>
      <trkpt lat="59.9714545577" lon="23.3367482654">
        <ele>46.6</ele>
        <time>2012-02-19T10:22:12Z</time>
      </trkpt>
      <trkpt lat="59.9714371233" lon="23.3370708847">
        <ele>47.4</ele>
        <time>2012-02-19T10:22:18Z</time>
      </trkpt>
      <trkpt lat="59.9714307531" lon="23.3372785882">
        <ele>47.6</ele>
        <time>2012-02-19T10:22:22Z</time>
      </trkpt>
      <trkpt lat="59.971407619" lon="23.3374902312">
        <ele>47.8</ele>
        <time>2012-02-19T10:22:26Z</time>
      </trkpt>
      <trkpt lat="59.971396052" lon="23.3376906424">
        <ele>47.8</ele>
        <time>2012-02-19T10:22:30Z</time>
      </trkpt>
      <trkpt lat="59.9713992371" lon="23.3379744535">
        <ele>48.4</ele>
        <time>2012-02-19T10:22:35Z</time>
      </trkpt>
      <trkpt lat="59.9714357822" lon="23.3382703346">
        <ele>49.2</ele>
        <time>2012-02-19T10:22:41Z</time>
      </trkpt>
      <trkpt lat="59.9714435774" lon="23.3383256551">
        <ele>49.2</ele>
        <time>2012-02-19T10:22:42Z</time>
      </trkpt>
      <trkpt lat="59.9714481874" lon="23.3385309279">
        <ele>49.6</ele>
        <time>2012-02-19T10:22:46Z</time>
      </trkpt>
      <trkpt lat="59.9714964672" lon="23.3388574867">
        <ele>49.8</ele>
        <time>2012-02-19T10:22:52Z</time>
      </trkpt>
      <trkpt lat="59.9715014125" lon="23.3391355143">
        <ele>50</ele>
        <time>2012-02-19T10:22:58Z</time>
      </trkpt>
      <trkpt lat="59.9714569884" lon="23.3394851234">
        <ele>50</ele>
        <time>2012-02-19T10:23:05Z</time>
      </trkpt>
      <trkpt lat="59.9714171744" lon="23.3397676772">
        <ele>50</ele>
        <time>2012-02-19T10:23:11Z</time>
      </trkpt>
      <trkpt lat="59.971393286" lon="23.3401075633">
        <ele>50</ele>
        <time>2012-02-19T10:23:18Z</time>
      </trkpt>
      <trkpt lat="59.9713766898" lon="23.3404168554">
        <ele>50.2</ele>
        <time>2012-02-19T10:23:24Z</time>
      </trkpt>
      <trkpt lat="59.9713457606" lon="23.340634198">
        <ele>51</ele>
        <time>2012-02-19T10:23:28Z</time>
      </trkpt>
      <trkpt lat="59.9713402286" lon="23.3407641175">
        <ele>51.2</ele>
        <time>2012-02-19T10:23:30Z</time>
      </trkpt>
      <trkpt lat="59.9713473532" lon="23.3409030894">
        <ele>51.4</ele>
        <time>2012-02-19T10:23:33Z</time>
      </trkpt>
      <trkpt lat="59.971345593" lon="23.3412754972">
        <ele>51.8</ele>
        <time>2012-02-19T10:23:40Z</time>
      </trkpt>
      <trkpt lat="59.9713588364" lon="23.3414920017">
        <ele>52</ele>
        <time>2012-02-19T10:23:44Z</time>
      </trkpt>
      <trkpt lat="59.971358082" lon="23.3417507509">
        <ele>52.8</ele>
        <time>2012-02-19T10:23:49Z</time>
      </trkpt>
      <trkpt lat="59.9713577467" lon="23.3419924849">
        <ele>53.4</ele>
        <time>2012-02-19T10:23:53Z</time>
      </trkpt>
      <trkpt lat="59.9713787015" lon="23.342355505">
        <ele>53.8</ele>
        <time>2012-02-19T10:24:00Z</time>
      </trkpt>
      <trkpt lat="59.9714072838" lon="23.3427381388">
        <ele>54</ele>
        <time>2012-02-19T10:24:07Z</time>
      </trkpt>
      <trkpt lat="59.9714054397" lon="23.3427858318">
        <ele>54</ele>
        <time>2012-02-19T10:24:08Z</time>
      </trkpt>
      <trkpt lat="59.9714263107" lon="23.3430365344">
        <ele>54</ele>
        <time>2012-02-19T10:24:12Z</time>
      </trkpt>
      <trkpt lat="59.9714475169" lon="23.3433299847">
        <ele>54.2</ele>
        <time>2012-02-19T10:24:18Z</time>
      </trkpt>
      <trkpt lat="59.9714684716" lon="23.3435511831">
        <ele>54.2</ele>
        <time>2012-02-19T10:24:23Z</time>
      </trkpt>
      <trkpt lat="59.9714608441" lon="23.3437655082">
        <ele>54.2</ele>
        <time>2012-02-19T10:24:28Z</time>
      </trkpt>
      <trkpt lat="59.9714714053" lon="23.3439696913">
        <ele>54.2</ele>
        <time>2012-02-19T10:24:33Z</time>
      </trkpt>
      <trkpt lat="59.9714763506" lon="23.3439870419">
        <ele>54.2</ele>
        <time>2012-02-19T10:24:34Z</time>
      </trkpt>
      <trkpt lat="59.9714860736" lon="23.3440738783">
        <ele>54.2</ele>
        <time>2012-02-19T10:24:39Z</time>
      </trkpt>
      <trkpt lat="59.9714939526" lon="23.3440933244">
        <ele>54.2</ele>
        <time>2012-02-19T10:24:40Z</time>
      </trkpt>
      <trkpt lat="59.9715310006" lon="23.3442397561">
        <ele>54.2</ele>
        <time>2012-02-19T10:24:44Z</time>
      </trkpt>
      <trkpt lat="59.9715750056" lon="23.3444671571">
        <ele>54.2</ele>
        <time>2012-02-19T10:24:49Z</time>
      </trkpt>
      <trkpt lat="59.9716382051" lon="23.3447532313">
        <ele>54.2</ele>
        <time>2012-02-19T10:24:55Z</time>
      </trkpt>
      <trkpt lat="59.9716577349" lon="23.3448400678">
        <ele>54.2</ele>
        <time>2012-02-19T10:24:56Z</time>
      </trkpt>
      <trkpt lat="59.9717848883" lon="23.3452790279">
        <ele>54.2</ele>
        <time>2012-02-19T10:25:05Z</time>
      </trkpt>
      <trkpt lat="59.9718141412" lon="23.3457276272">
        <ele>54.2</ele>
        <time>2012-02-19T10:25:12Z</time>
      </trkpt>
      <trkpt lat="59.971833671" lon="23.3460960117">
        <ele>54.2</ele>
        <time>2012-02-19T10:25:19Z</time>
      </trkpt>
      <trkpt lat="59.9718742394" lon="23.3464525777">
        <ele>54.2</ele>
        <time>2012-02-19T10:25:25Z</time>
      </trkpt>
      <trkpt lat="59.9718946074" lon="23.3468098143">
        <ele>54.2</ele>
        <time>2012-02-19T10:25:31Z</time>
      </trkpt>
      <trkpt lat="59.971876754" lon="23.3472098824">
        <ele>54.2</ele>
        <time>2012-02-19T10:25:38Z</time>
      </trkpt>
      <trkpt lat="59.9718915899" lon="23.3475779316">
        <ele>54.2</ele>
        <time>2012-02-19T10:25:44Z</time>
      </trkpt>
      <trkpt lat="59.9718463277" lon="23.3479797599">
        <ele>53.2</ele>
        <time>2012-02-19T10:25:51Z</time>
      </trkpt>
      <trkpt lat="59.9717963715" lon="23.3483402654">
        <ele>52.6</ele>
        <time>2012-02-19T10:25:57Z</time>
      </trkpt>
      <trkpt lat="59.9717589883" lon="23.3486892039">
        <ele>52.4</ele>
        <time>2012-02-19T10:26:03Z</time>
      </trkpt>
      <trkpt lat="59.9717830443" lon="23.3490338677">
        <ele>52.2</ele>
        <time>2012-02-19T10:26:09Z</time>
      </trkpt>
      <trkpt lat="59.9718625886" lon="23.349379621">
        <ele>52.2</ele>
        <time>2012-02-19T10:26:16Z</time>
      </trkpt>
      <trkpt lat="59.9719470781" lon="23.3496933556">
        <ele>52</ele>
        <time>2012-02-19T10:26:22Z</time>
      </trkpt>
      <trkpt lat="59.9720287178" lon="23.350013125">
        <ele>51</ele>
        <time>2012-02-19T10:26:28Z</time>
      </trkpt>
      <trkpt lat="59.9721383531" lon="23.3503811743">
        <ele>50.6</ele>
        <time>2012-02-19T10:26:35Z</time>
      </trkpt>
      <trkpt lat="59.972244887" lon="23.3507236587">
        <ele>50.4</ele>
        <time>2012-02-19T10:26:42Z</time>
      </trkpt>
      <trkpt lat="59.9723061587" lon="23.3510373094">
        <ele>50.2</ele>
        <time>2012-02-19T10:26:48Z</time>
      </trkpt>
      <trkpt lat="59.9723449669" lon="23.3512875091">
        <ele>50</ele>
        <time>2012-02-19T10:26:53Z</time>
      </trkpt>
      <trkpt lat="59.9724402691" lon="23.3516203544">
        <ele>49</ele>
        <time>2012-02-19T10:26:59Z</time>
      </trkpt>
      <trkpt lat="59.9725481442" lon="23.3518840489">
        <ele>48.6</ele>
        <time>2012-02-19T10:27:05Z</time>
      </trkpt>
      <trkpt lat="59.9726279398" lon="23.3521588076">
        <ele>48.4</ele>
        <time>2012-02-19T10:27:11Z</time>
      </trkpt>
      <trkpt lat="59.9726372438" lon="23.3523104362">
        <ele>48.2</ele>
        <time>2012-02-19T10:27:14Z</time>
      </trkpt>
      <trkpt lat="59.9726995213" lon="23.3526659126">
        <ele>48.2</ele>
        <time>2012-02-19T10:27:21Z</time>
      </trkpt>
      <trkpt lat="59.9727685881" lon="23.3529279308">
        <ele>48.2</ele>
        <time>2012-02-19T10:27:26Z</time>
      </trkpt>
      <trkpt lat="59.9728777205" lon="23.3532548249">
        <ele>48</ele>
        <time>2012-02-19T10:27:33Z</time>
      </trkpt>
      <trkpt lat="59.9729517326" lon="23.3534833155">
        <ele>48</ele>
        <time>2012-02-19T10:27:38Z</time>
      </trkpt>
      <trkpt lat="59.97305483" lon="23.3537656179">
        <ele>48</ele>
        <time>2012-02-19T10:27:44Z</time>
      </trkpt>
      <trkpt lat="59.973086346" lon="23.3540532008">
        <ele>48</ele>
        <time>2012-02-19T10:27:49Z</time>
      </trkpt>
      <trkpt lat="59.9730801434" lon="23.3544192384">
        <ele>48</ele>
        <time>2012-02-19T10:27:56Z</time>
      </trkpt>
      <trkpt lat="59.9731064625" lon="23.3547984356">
        <ele>48</ele>
        <time>2012-02-19T10:28:03Z</time>
      </trkpt>
      <trkpt lat="59.9731581788" lon="23.3551437699">
        <ele>48</ele>
        <time>2012-02-19T10:28:09Z</time>
      </trkpt>
      <trkpt lat="59.973232191" lon="23.3554797164">
        <ele>48</ele>
        <time>2012-02-19T10:28:15Z</time>
      </trkpt>
      <trkpt lat="59.9732896909" lon="23.3558307504">
        <ele>48</ele>
        <time>2012-02-19T10:28:21Z</time>
      </trkpt>
      <trkpt lat="59.9733149204" lon="23.3561666969">
        <ele>48</ele>
        <time>2012-02-19T10:28:27Z</time>
      </trkpt>
      <trkpt lat="59.9733191113" lon="23.3561991349">
        <ele>48</ele>
        <time>2012-02-19T10:28:28Z</time>
      </trkpt>
      <trkpt lat="59.973305365" lon="23.3566149609">
        <ele>48</ele>
        <time>2012-02-19T10:28:35Z</time>
      </trkpt>
      <trkpt lat="59.9732897747" lon="23.3569445373">
        <ele>48</ele>
        <time>2012-02-19T10:28:41Z</time>
      </trkpt>
      <trkpt lat="59.9732829853" lon="23.357229438">
        <ele>48</ele>
        <time>2012-02-19T10:28:47Z</time>
      </trkpt>
      <trkpt lat="59.9732555765" lon="23.3575052025">
        <ele>48</ele>
        <time>2012-02-19T10:28:52Z</time>
      </trkpt>
      <trkpt lat="59.9732171036" lon="23.357716175">
        <ele>48</ele>
        <time>2012-02-19T10:28:56Z</time>
      </trkpt>
      <trkpt lat="59.9732042793" lon="23.3578752634">
        <ele>48</ele>
        <time>2012-02-19T10:28:59Z</time>
      </trkpt>
      <trkpt lat="59.9731367212" lon="23.3584522734">
        <ele>48</ele>
        <time>2012-02-19T10:29:09Z</time>
      </trkpt>
      <trkpt lat="59.9731288422" lon="23.358739102">
        <ele>48.4</ele>
        <time>2012-02-19T10:29:14Z</time>
      </trkpt>
      <trkpt lat="59.9731177781" lon="23.3590884596">
        <ele>49.2</ele>
        <time>2012-02-19T10:29:20Z</time>
      </trkpt>
      <trkpt lat="59.9731305186" lon="23.3595119132">
        <ele>49.8</ele>
        <time>2012-02-19T10:29:28Z</time>
      </trkpt>
      <trkpt lat="59.9731312729" lon="23.359627332">
        <ele>49.8</ele>
        <time>2012-02-19T10:29:30Z</time>
      </trkpt>
      <trkpt lat="59.9730726835" lon="23.3599558186">
        <ele>50</ele>
        <time>2012-02-19T10:29:36Z</time>
      </trkpt>
      <trkpt lat="59.9730454423" lon="23.3601375382">
        <ele>50</ele>
        <time>2012-02-19T10:29:40Z</time>
      </trkpt>
      <trkpt lat="59.9729901217" lon="23.3604217685">
        <ele>50</ele>
        <time>2012-02-19T10:29:45Z</time>
      </trkpt>
      <trkpt lat="59.9729670715" lon="23.3608129517">
        <ele>50.2</ele>
        <time>2012-02-19T10:29:52Z</time>
      </trkpt>
      <trkpt lat="59.9729661495" lon="23.361489874">
        <ele>50.2</ele>
        <time>2012-02-19T10:30:04Z</time>
      </trkpt>
      <trkpt lat="59.9729586058" lon="23.3618819793">
        <ele>50.2</ele>
        <time>2012-02-19T10:30:11Z</time>
      </trkpt>
      <trkpt lat="59.9729131759" lon="23.3622200213">
        <ele>50.2</ele>
        <time>2012-02-19T10:30:17Z</time>
      </trkpt>
      <trkpt lat="59.9728721046" lon="23.3624357714">
        <ele>50.2</ele>
        <time>2012-02-19T10:30:21Z</time>
      </trkpt>
      <trkpt lat="59.972864058" lon="23.3624703048">
        <ele>50.2</ele>
        <time>2012-02-19T10:30:22Z</time>
      </trkpt>
      <trkpt lat="59.9728265071" lon="23.3626814449">
        <ele>49.6</ele>
        <time>2012-02-19T10:30:26Z</time>
      </trkpt>
      <trkpt lat="59.9727746231" lon="23.3630378433">
        <ele>48.8</ele>
        <time>2012-02-19T10:30:33Z</time>
      </trkpt>
      <trkpt lat="59.9727604577" lon="23.3633835967">
        <ele>48.4</ele>
        <time>2012-02-19T10:30:39Z</time>
      </trkpt>
      <trkpt lat="59.9727586137" lon="23.3635999335">
        <ele>48.4</ele>
        <time>2012-02-19T10:30:43Z</time>
      </trkpt>
      <trkpt lat="59.9727806581" lon="23.3639618639">
        <ele>48.2</ele>
        <time>2012-02-19T10:30:49Z</time>
      </trkpt>
      <trkpt lat="59.9728210588" lon="23.3642862435">
        <ele>47.8</ele>
        <time>2012-02-19T10:30:55Z</time>
      </trkpt>
      <trkpt lat="59.9728326258" lon="23.3644080325">
        <ele>47.4</ele>
        <time>2012-02-19T10:30:57Z</time>
      </trkpt>
      <trkpt lat="59.9729498886" lon="23.3647476671">
        <ele>46.6</ele>
        <time>2012-02-19T10:31:04Z</time>
      </trkpt>
      <trkpt lat="59.9730795566" lon="23.3650544446">
        <ele>46</ele>
        <time>2012-02-19T10:31:11Z</time>
      </trkpt>
      <trkpt lat="59.9731734339" lon="23.365274218">
        <ele>45.2</ele>
        <time>2012-02-19T10:31:16Z</time>
      </trkpt>
      <trkpt lat="59.9732296764" lon="23.3655147785">
        <ele>44.6</ele>
        <time>2012-02-19T10:31:21Z</time>
      </trkpt>
      <trkpt lat="59.9732467755" lon="23.3657772158">
        <ele>44.4</ele>
        <time>2012-02-19T10:31:26Z</time>
      </trkpt>
      <trkpt lat="59.9732160978" lon="23.3660259906">
        <ele>44.2</ele>
        <time>2012-02-19T10:31:31Z</time>
      </trkpt>
      <trkpt lat="59.9731555805" lon="23.3662187743">
        <ele>44</ele>
        <time>2012-02-19T10:31:35Z</time>
      </trkpt>
      <trkpt lat="59.9730915427" lon="23.3664619332">
        <ele>44</ele>
        <time>2012-02-19T10:31:40Z</time>
      </trkpt>
      <trkpt lat="59.973060865" lon="23.366619513">
        <ele>44</ele>
        <time>2012-02-19T10:31:43Z</time>
      </trkpt>
      <trkpt lat="59.9730757009" lon="23.3668889911">
        <ele>44</ele>
        <time>2012-02-19T10:31:49Z</time>
      </trkpt>
      <trkpt lat="59.9730699174" lon="23.3669411265">
        <ele>44</ele>
        <time>2012-02-19T10:31:50Z</time>
      </trkpt>
      <trkpt lat="59.9730399941" lon="23.367195098">
        <ele>44</ele>
        <time>2012-02-19T10:31:55Z</time>
      </trkpt>
      <trkpt lat="59.9729940612" lon="23.3674827648">
        <ele>44</ele>
        <time>2012-02-19T10:32:01Z</time>
      </trkpt>
      <trkpt lat="59.9729537443" lon="23.3677193021">
        <ele>44</ele>
        <time>2012-02-19T10:32:06Z</time>
      </trkpt>
      <trkpt lat="59.9729141817" lon="23.3679759558">
        <ele>44</ele>
        <time>2012-02-19T10:32:11Z</time>
      </trkpt>
      <trkpt lat="59.9728901257" lon="23.3682253174">
        <ele>44</ele>
        <time>2012-02-19T10:32:16Z</time>
      </trkpt>
      <trkpt lat="59.9728806541" lon="23.3683341144">
        <ele>44</ele>
        <time>2012-02-19T10:32:18Z</time>
      </trkpt>
      <trkpt lat="59.9728660696" lon="23.3686309175">
        <ele>44</ele>
        <time>2012-02-19T10:32:24Z</time>
      </trkpt>
      <trkpt lat="59.9728484676" lon="23.3687843901">
        <ele>44</ele>
        <time>2012-02-19T10:32:27Z</time>
      </trkpt>
      <trkpt lat="59.9728143533" lon="23.3691274613">
        <ele>44</ele>
        <time>2012-02-19T10:32:33Z</time>
      </trkpt>
      <trkpt lat="59.972811252" lon="23.3694090093">
        <ele>44</ele>
        <time>2012-02-19T10:32:38Z</time>
      </trkpt>
      <trkpt lat="59.972820975" lon="23.3697374121">
        <ele>44</ele>
        <time>2012-02-19T10:32:44Z</time>
      </trkpt>
      <trkpt lat="59.9728460369" lon="23.3700081475">
        <ele>44</ele>
        <time>2012-02-19T10:32:49Z</time>
      </trkpt>
      <trkpt lat="59.972893227" lon="23.3703400707">
        <ele>44</ele>
        <time>2012-02-19T10:32:55Z</time>
      </trkpt>
      <trkpt lat="59.9729503077" lon="23.370583984">
        <ele>44</ele>
        <time>2012-02-19T10:33:00Z</time>
      </trkpt>
      <trkpt lat="59.9730356355" lon="23.3708175876">
        <ele>43.4</ele>
        <time>2012-02-19T10:33:05Z</time>
      </trkpt>
      <trkpt lat="59.9730877709" lon="23.3710821203">
        <ele>42.8</ele>
        <time>2012-02-19T10:33:10Z</time>
      </trkpt>
      <trkpt lat="59.9730921295" lon="23.3711399555">
        <ele>42.6</ele>
        <time>2012-02-19T10:33:11Z</time>
      </trkpt>
      <trkpt lat="59.973131692" lon="23.3713423783">
        <ele>42.4</ele>
        <time>2012-02-19T10:33:15Z</time>
      </trkpt>
      <trkpt lat="59.9732067939" lon="23.3716374212">
        <ele>41.6</ele>
        <time>2012-02-19T10:33:21Z</time>
      </trkpt>
      <trkpt lat="59.9732906967" lon="23.3719461266">
        <ele>40.8</ele>
        <time>2012-02-19T10:33:27Z</time>
      </trkpt>
      <trkpt lat="59.9733438379" lon="23.3722031995">
        <ele>40.4</ele>
        <time>2012-02-19T10:33:32Z</time>
      </trkpt>
      <trkpt lat="59.9734293333" lon="23.3724839931">
        <ele>40</ele>
        <time>2012-02-19T10:33:38Z</time>
      </trkpt>
      <trkpt lat="59.9734474382" lon="23.3725248968">
        <ele>40</ele>
        <time>2012-02-19T10:33:39Z</time>
      </trkpt>
      <trkpt lat="59.97351793" lon="23.3726896849">
        <ele>39.8</ele>
        <time>2012-02-19T10:33:43Z</time>
      </trkpt>
      <trkpt lat="59.9735460932" lon="23.3727636971">
        <ele>39.4</ele>
        <time>2012-02-19T10:33:45Z</time>
      </trkpt>
      <trkpt lat="59.9736760964" lon="23.3730141483">
        <ele>38.4</ele>
        <time>2012-02-19T10:33:52Z</time>
      </trkpt>
      <trkpt lat="59.973814314" lon="23.3732487577">
        <ele>38.2</ele>
        <time>2012-02-19T10:33:58Z</time>
      </trkpt>
      <trkpt lat="59.9738977139" lon="23.3735251089">
        <ele>37.6</ele>
        <time>2012-02-19T10:34:04Z</time>
      </trkpt>
      <trkpt lat="59.9739633442" lon="23.373812189">
        <ele>36.8</ele>
        <time>2012-02-19T10:34:10Z</time>
      </trkpt>
      <trkpt lat="59.9740350932" lon="23.3740940723">
        <ele>36.2</ele>
        <time>2012-02-19T10:34:16Z</time>
      </trkpt>
      <trkpt lat="59.9740645137" lon="23.3742443598">
        <ele>36</ele>
        <time>2012-02-19T10:34:19Z</time>
      </trkpt>
      <trkpt lat="59.9740759131" lon="23.3742912146">
        <ele>36</ele>
        <time>2012-02-19T10:34:20Z</time>
      </trkpt>
      <trkpt lat="59.9741192475" lon="23.3744734371">
        <ele>35.8</ele>
        <time>2012-02-19T10:34:24Z</time>
      </trkpt>
      <trkpt lat="59.9741650965" lon="23.3746775363">
        <ele>35.8</ele>
        <time>2012-02-19T10:34:28Z</time>
      </trkpt>
      <trkpt lat="59.9742381028" lon="23.3749129001">
        <ele>35.6</ele>
        <time>2012-02-19T10:34:33Z</time>
      </trkpt>
      <trkpt lat="59.9743198264" lon="23.3752059313">
        <ele>35.6</ele>
        <time>2012-02-19T10:34:39Z</time>
      </trkpt>
      <trkpt lat="59.9743896476" lon="23.3754343381">
        <ele>35.6</ele>
        <time>2012-02-19T10:34:44Z</time>
      </trkpt>
      <trkpt lat="59.9744406934" lon="23.3756366772">
        <ele>35.6</ele>
        <time>2012-02-19T10:34:48Z</time>
      </trkpt>
      <trkpt lat="59.9744537691" lon="23.3757375114">
        <ele>35.6</ele>
        <time>2012-02-19T10:34:50Z</time>
      </trkpt>
      <trkpt lat="59.974557118" lon="23.3760520841">
        <ele>35.6</ele>
        <time>2012-02-19T10:34:57Z</time>
      </trkpt>
      <trkpt lat="59.9746254304" lon="23.376223494">
        <ele>35.6</ele>
        <time>2012-02-19T10:35:01Z</time>
      </trkpt>
      <trkpt lat="59.9747320482" lon="23.3764948161">
        <ele>35.6</ele>
        <time>2012-02-19T10:35:07Z</time>
      </trkpt>
      <trkpt lat="59.9748277695" lon="23.376789859">
        <ele>35.6</ele>
        <time>2012-02-19T10:35:13Z</time>
      </trkpt>
      <trkpt lat="59.9749095768" lon="23.3770357839">
        <ele>35.6</ele>
        <time>2012-02-19T10:35:18Z</time>
      </trkpt>
      <trkpt lat="59.9749747042" lon="23.3772261369">
        <ele>35.6</ele>
        <time>2012-02-19T10:35:22Z</time>
      </trkpt>
      <trkpt lat="59.9750724372" lon="23.3775624187">
        <ele>35.6</ele>
        <time>2012-02-19T10:35:29Z</time>
      </trkpt>
      <trkpt lat="59.9751570944" lon="23.3778494149">
        <ele>35.6</ele>
        <time>2012-02-19T10:35:35Z</time>
      </trkpt>
      <trkpt lat="59.9752465292" lon="23.3781164623">
        <ele>35.6</ele>
        <time>2012-02-19T10:35:41Z</time>
      </trkpt>
      <trkpt lat="59.9753249" lon="23.378402788">
        <ele>35.6</ele>
        <time>2012-02-19T10:35:47Z</time>
      </trkpt>
      <trkpt lat="59.9753374728" lon="23.3784484693">
        <ele>35.6</ele>
        <time>2012-02-19T10:35:48Z</time>
      </trkpt>
      <trkpt lat="59.9753654684" lon="23.3786145148">
        <ele>35.6</ele>
        <time>2012-02-19T10:35:51Z</time>
      </trkpt>
      <trkpt lat="59.975437888" lon="23.3789109826">
        <ele>35.6</ele>
        <time>2012-02-19T10:35:58Z</time>
      </trkpt>
      <trkpt lat="59.9754817253" lon="23.3790596775">
        <ele>35.6</ele>
        <time>2012-02-19T10:36:02Z</time>
      </trkpt>
      <trkpt lat="59.9755239701" lon="23.3793409741">
        <ele>35.6</ele>
        <time>2012-02-19T10:36:08Z</time>
      </trkpt>
      <trkpt lat="59.9755225452" lon="23.3796526131">
        <ele>35.6</ele>
        <time>2012-02-19T10:36:14Z</time>
      </trkpt>
      <trkpt lat="59.9755178513" lon="23.3799394417">
        <ele>35.6</ele>
        <time>2012-02-19T10:36:19Z</time>
      </trkpt>
      <trkpt lat="59.9755079607" lon="23.3802672578">
        <ele>35.4</ele>
        <time>2012-02-19T10:36:25Z</time>
      </trkpt>
      <trkpt lat="59.9755090503" lon="23.3805462075">
        <ele>34.6</ele>
        <time>2012-02-19T10:36:30Z</time>
      </trkpt>
      <trkpt lat="59.9755109782" lon="23.3807797272">
        <ele>34.2</ele>
        <time>2012-02-19T10:36:34Z</time>
      </trkpt>
      <trkpt lat="59.9755123193" lon="23.3811857464">
        <ele>33.8</ele>
        <time>2012-02-19T10:36:41Z</time>
      </trkpt>
      <trkpt lat="59.9755108105" lon="23.3815188431">
        <ele>33.8</ele>
        <time>2012-02-19T10:36:47Z</time>
      </trkpt>
      <trkpt lat="59.9755157559" lon="23.3818167359">
        <ele>33.6</ele>
        <time>2012-02-19T10:36:52Z</time>
      </trkpt>
      <trkpt lat="59.9755056976" lon="23.382196855">
        <ele>33.6</ele>
        <time>2012-02-19T10:36:58Z</time>
      </trkpt>
      <trkpt lat="59.9755034345" lon="23.382621063">
        <ele>32.4</ele>
        <time>2012-02-19T10:37:05Z</time>
      </trkpt>
      <trkpt lat="59.9755102238" lon="23.3828914631">
        <ele>32</ele>
        <time>2012-02-19T10:37:10Z</time>
      </trkpt>
      <trkpt lat="59.9755007523" lon="23.3832463527">
        <ele>31.8</ele>
        <time>2012-02-19T10:37:16Z</time>
      </trkpt>
      <trkpt lat="59.9755043565" lon="23.3835209438">
        <ele>31.6</ele>
        <time>2012-02-19T10:37:21Z</time>
      </trkpt>
      <trkpt lat="59.975495304" lon="23.3838025756">
        <ele>31.6</ele>
        <time>2012-02-19T10:37:26Z</time>
      </trkpt>
      <trkpt lat="59.9754939629" lon="23.3840852971">
        <ele>31.6</ele>
        <time>2012-02-19T10:37:31Z</time>
      </trkpt>
      <trkpt lat="59.975485581" lon="23.3844253508">
        <ele>31.6</ele>
        <time>2012-02-19T10:37:37Z</time>
      </trkpt>
      <trkpt lat="59.9754787079" lon="23.3847080723">
        <ele>31.6</ele>
        <time>2012-02-19T10:37:42Z</time>
      </trkpt>
      <trkpt lat="59.9754762771" lon="23.3850917118">
        <ele>31.4</ele>
        <time>2012-02-19T10:37:49Z</time>
      </trkpt>
      <trkpt lat="59.9754782888" lon="23.3854594258">
        <ele>31.4</ele>
        <time>2012-02-19T10:37:56Z</time>
      </trkpt>
      <trkpt lat="59.975474014" lon="23.3858243737">
        <ele>31.4</ele>
        <time>2012-02-19T10:38:02Z</time>
      </trkpt>
      <trkpt lat="59.9754708289" lon="23.3861985417">
        <ele>32.2</ele>
        <time>2012-02-19T10:38:09Z</time>
      </trkpt>
      <trkpt lat="59.9754659674" lon="23.3865594663">
        <ele>32.8</ele>
        <time>2012-02-19T10:38:15Z</time>
      </trkpt>
      <trkpt lat="59.9754616926" lon="23.3869104165">
        <ele>34</ele>
        <time>2012-02-19T10:38:21Z</time>
      </trkpt>
      <trkpt lat="59.9754880118" lon="23.3872420883">
        <ele>35</ele>
        <time>2012-02-19T10:38:27Z</time>
      </trkpt>
      <trkpt lat="59.9755061167" lon="23.3875739277">
        <ele>36.2</ele>
        <time>2012-02-19T10:38:33Z</time>
      </trkpt>
      <trkpt lat="59.975509218" lon="23.3876271528">
        <ele>36.4</ele>
        <time>2012-02-19T10:38:34Z</time>
      </trkpt>
      <trkpt lat="59.9755522171" lon="23.3879479281">
        <ele>37</ele>
        <time>2012-02-19T10:38:40Z</time>
      </trkpt>
      <trkpt lat="59.9755878402" lon="23.3882275483">
        <ele>37.2</ele>
        <time>2012-02-19T10:38:45Z</time>
      </trkpt>
      <trkpt lat="59.9755978147" lon="23.3882827012">
        <ele>37.4</ele>
        <time>2012-02-19T10:38:46Z</time>
      </trkpt>
      <trkpt lat="59.975639808" lon="23.3885967709">
        <ele>37.4</ele>
        <time>2012-02-19T10:38:52Z</time>
      </trkpt>
      <trkpt lat="59.975724549" lon="23.3889122657">
        <ele>37.6</ele>
        <time>2012-02-19T10:38:59Z</time>
      </trkpt>
      <trkpt lat="59.9758304124" lon="23.3891809894">
        <ele>37.6</ele>
        <time>2012-02-19T10:39:05Z</time>
      </trkpt>
      <trkpt lat="59.9759263013" lon="23.3894555804">
        <ele>37.6</ele>
        <time>2012-02-19T10:39:11Z</time>
      </trkpt>
      <trkpt lat="59.9759998106" lon="23.3896741804">
        <ele>37.6</ele>
        <time>2012-02-19T10:39:16Z</time>
      </trkpt>
      <trkpt lat="59.9760874014" lon="23.3899376235">
        <ele>37.6</ele>
        <time>2012-02-19T10:39:22Z</time>
      </trkpt>
      <trkpt lat="59.9761435602" lon="23.3901287308">
        <ele>37.6</ele>
        <time>2012-02-19T10:39:26Z</time>
      </trkpt>
      <trkpt lat="59.9762129623" lon="23.3903505159">
        <ele>37.6</ele>
        <time>2012-02-19T10:39:31Z</time>
      </trkpt>
      <trkpt lat="59.976305247" lon="23.3906110253">
        <ele>37.6</ele>
        <time>2012-02-19T10:39:37Z</time>
      </trkpt>
      <trkpt lat="59.9763945143" lon="23.3908263563">
        <ele>37.6</ele>
        <time>2012-02-19T10:39:42Z</time>
      </trkpt>
      <trkpt lat="59.9764967734" lon="23.3910943257">
        <ele>37.6</ele>
        <time>2012-02-19T10:39:48Z</time>
      </trkpt>
      <trkpt lat="59.9765943387" lon="23.3913566792">
        <ele>37.6</ele>
        <time>2012-02-19T10:39:54Z</time>
      </trkpt>
      <trkpt lat="59.9767115177" lon="23.391611908">
        <ele>37.6</ele>
        <time>2012-02-19T10:40:00Z</time>
      </trkpt>
      <trkpt lat="59.9768402637" lon="23.3919191046">
        <ele>37.4</ele>
        <time>2012-02-19T10:40:07Z</time>
      </trkpt>
      <trkpt lat="59.9769589514" lon="23.392155139">
        <ele>36.6</ele>
        <time>2012-02-19T10:40:13Z</time>
      </trkpt>
      <trkpt lat="59.9770573549" lon="23.3923502696">
        <ele>36.2</ele>
        <time>2012-02-19T10:40:18Z</time>
      </trkpt>
      <trkpt lat="59.9771410901" lon="23.392540874">
        <ele>35.4</ele>
        <time>2012-02-19T10:40:23Z</time>
      </trkpt>
      <trkpt lat="59.9772644717" lon="23.3927583843">
        <ele>34.6</ele>
        <time>2012-02-19T10:40:29Z</time>
      </trkpt>
      <trkpt lat="59.9773553314" lon="23.392937254">
        <ele>34.2</ele>
        <time>2012-02-19T10:40:34Z</time>
      </trkpt>
      <trkpt lat="59.9774551599" lon="23.3931307921">
        <ele>33.6</ele>
        <time>2012-02-19T10:40:39Z</time>
      </trkpt>
      <trkpt lat="59.9775578382" lon="23.3933403396">
        <ele>32.6</ele>
        <time>2012-02-19T10:40:44Z</time>
      </trkpt>
      <trkpt lat="59.9776484465" lon="23.3935713448">
        <ele>32.2</ele>
        <time>2012-02-19T10:40:49Z</time>
      </trkpt>
      <trkpt lat="59.9776865841" lon="23.3936524816">
        <ele>32</ele>
        <time>2012-02-19T10:40:51Z</time>
      </trkpt>
      <trkpt lat="59.9778481872" lon="23.3937034435">
        <ele>31</ele>
        <time>2012-02-19T10:40:58Z</time>
      </trkpt>
      <trkpt lat="59.9780354388" lon="23.3936367236">
        <ele>30.2</ele>
        <time>2012-02-19T10:41:05Z</time>
      </trkpt>
      <trkpt lat="59.9782201759" lon="23.3936408307">
        <ele>28.6</ele>
        <time>2012-02-19T10:41:12Z</time>
      </trkpt>
      <trkpt lat="59.978407679" lon="23.3936683234">
        <ele>27.4</ele>
        <time>2012-02-19T10:41:19Z</time>
      </trkpt>
      <trkpt lat="59.9785328208" lon="23.3936983306">
        <ele>26.6</ele>
        <time>2012-02-19T10:41:24Z</time>
      </trkpt>
      <trkpt lat="59.9786844493" lon="23.3937434252">
        <ele>25.2</ele>
        <time>2012-02-19T10:41:30Z</time>
      </trkpt>
      <trkpt lat="59.9788397659" lon="23.3937846641">
        <ele>24.2</ele>
        <time>2012-02-19T10:41:36Z</time>
      </trkpt>
      <trkpt lat="59.9789965913" lon="23.3938301778">
        <ele>23.8</ele>
        <time>2012-02-19T10:41:42Z</time>
      </trkpt>
      <trkpt lat="59.9791468788" lon="23.3938983227">
        <ele>22.6</ele>
        <time>2012-02-19T10:41:48Z</time>
      </trkpt>
      <trkpt lat="59.97929725" lon="23.3939786213">
        <ele>22</ele>
        <time>2012-02-19T10:41:54Z</time>
      </trkpt>
      <trkpt lat="59.9796059554" lon="23.3941725785">
        <ele>20</ele>
        <time>2012-02-19T10:42:06Z</time>
      </trkpt>
      <trkpt lat="59.9798009184" lon="23.394294116">
        <ele>19.4</ele>
        <time>2012-02-19T10:42:14Z</time>
      </trkpt>
      <trkpt lat="59.979947434" lon="23.3943780188">
        <ele>19.4</ele>
        <time>2012-02-19T10:42:20Z</time>
      </trkpt>
      <trkpt lat="59.9800958775" lon="23.3944455769">
        <ele>19.2</ele>
        <time>2012-02-19T10:42:26Z</time>
      </trkpt>
      <trkpt lat="59.9802521999" lon="23.3945142247">
        <ele>19.2</ele>
        <time>2012-02-19T10:42:32Z</time>
      </trkpt>
      <trkpt lat="59.9804028227" lon="23.3945643485">
        <ele>19.2</ele>
        <time>2012-02-19T10:42:38Z</time>
      </trkpt>
      <trkpt lat="59.9805807704" lon="23.39460718">
        <ele>19.2</ele>
        <time>2012-02-19T10:42:45Z</time>
      </trkpt>
      <trkpt lat="59.9807442174" lon="23.3946307331">
        <ele>19</ele>
        <time>2012-02-19T10:42:51Z</time>
      </trkpt>
      <trkpt lat="59.9808974386" lon="23.3946826171">
        <ele>19</ele>
        <time>2012-02-19T10:42:57Z</time>
      </trkpt>
      <trkpt lat="59.9810787391" lon="23.3947558749">
        <ele>19</ele>
        <time>2012-02-19T10:43:04Z</time>
      </trkpt>
      <trkpt lat="59.9811985164" lon="23.3948074236">
        <ele>19</ele>
        <time>2012-02-19T10:43:09Z</time>
      </trkpt>
      <trkpt lat="59.9813709321" lon="23.3948776639">
        <ele>20</ele>
        <time>2012-02-19T10:43:15Z</time>
      </trkpt>
      <trkpt lat="59.9815234827" lon="23.3949468984">
        <ele>20.6</ele>
        <time>2012-02-19T10:43:21Z</time>
      </trkpt>
      <trkpt lat="59.9817194515" lon="23.3950358303">
        <ele>20.8</ele>
        <time>2012-02-19T10:43:28Z</time>
      </trkpt>
      <trkpt lat="59.9818762769" lon="23.3951125247">
        <ele>21</ele>
        <time>2012-02-19T10:43:34Z</time>
      </trkpt>
      <trkpt lat="59.9820302524" lon="23.3951937453">
        <ele>21</ele>
        <time>2012-02-19T10:43:40Z</time>
      </trkpt>
      <trkpt lat="59.982209625" lon="23.3953139418">
        <ele>21</ele>
        <time>2012-02-19T10:43:47Z</time>
      </trkpt>
      <trkpt lat="59.9823403827" lon="23.3954163686">
        <ele>21</ele>
        <time>2012-02-19T10:43:52Z</time>
      </trkpt>
      <trkpt lat="59.982510619" lon="23.3955349725">
        <ele>21</ele>
        <time>2012-02-19T10:43:59Z</time>
      </trkpt>
      <trkpt lat="59.9826571347" lon="23.3956419255">
        <ele>21</ele>
        <time>2012-02-19T10:44:05Z</time>
      </trkpt>
      <trkpt lat="59.9828012195" lon="23.3957606132">
        <ele>21.2</ele>
        <time>2012-02-19T10:44:11Z</time>
      </trkpt>
      <trkpt lat="59.9829696119" lon="23.395920037">
        <ele>22.2</ele>
        <time>2012-02-19T10:44:18Z</time>
      </trkpt>
      <trkpt lat="59.9830962624" lon="23.3960756889">
        <ele>22.6</ele>
        <time>2012-02-19T10:44:24Z</time>
      </trkpt>
      <trkpt lat="59.9832300375" lon="23.3962220368">
        <ele>22.8</ele>
        <time>2012-02-19T10:44:30Z</time>
      </trkpt>
      <trkpt lat="59.9833605437" lon="23.3963827179">
        <ele>23</ele>
        <time>2012-02-19T10:44:36Z</time>
      </trkpt>
      <trkpt lat="59.9834675806" lon="23.3965171635">
        <ele>23.4</ele>
        <time>2012-02-19T10:44:41Z</time>
      </trkpt>
      <trkpt lat="59.9836276749" lon="23.3967675309">
        <ele>24.4</ele>
        <time>2012-02-19T10:44:49Z</time>
      </trkpt>
      <trkpt lat="59.9837386512" lon="23.3970154675">
        <ele>24.8</ele>
        <time>2012-02-19T10:44:55Z</time>
      </trkpt>
      <trkpt lat="59.9838430897" lon="23.3972718698">
        <ele>25.6</ele>
        <time>2012-02-19T10:45:02Z</time>
      </trkpt>
      <trkpt lat="59.9839480311" lon="23.3976045474">
        <ele>26.4</ele>
        <time>2012-02-19T10:45:09Z</time>
      </trkpt>
      <trkpt lat="59.9840268209" lon="23.3978942259">
        <ele>26.8</ele>
        <time>2012-02-19T10:45:15Z</time>
      </trkpt>
      <trkpt lat="59.9840781182" lon="23.3981245605">
        <ele>27</ele>
        <time>2012-02-19T10:45:20Z</time>
      </trkpt>
      <trkpt lat="59.9841090474" lon="23.3982680586">
        <ele>27</ele>
        <time>2012-02-19T10:45:23Z</time>
      </trkpt>
      <trkpt lat="59.9841961353" lon="23.3985372853">
        <ele>27</ele>
        <time>2012-02-19T10:45:29Z</time>
      </trkpt>
      <trkpt lat="59.9842553115" lon="23.3988276343">
        <ele>27</ele>
        <time>2012-02-19T10:45:35Z</time>
      </trkpt>
      <trkpt lat="59.9843061058" lon="23.3990452284">
        <ele>27.2</ele>
        <time>2012-02-19T10:45:40Z</time>
      </trkpt>
      <trkpt lat="59.9843686348" lon="23.3992738028">
        <ele>27.2</ele>
        <time>2012-02-19T10:45:45Z</time>
      </trkpt>
      <trkpt lat="59.9844275596" lon="23.3994944982">
        <ele>27.2</ele>
        <time>2012-02-19T10:45:50Z</time>
      </trkpt>
      <trkpt lat="59.984488496" lon="23.3997161995">
        <ele>27.2</ele>
        <time>2012-02-19T10:45:55Z</time>
      </trkpt>
      <trkpt lat="59.9845340935" lon="23.3999808999">
        <ele>27.4</ele>
        <time>2012-02-19T10:46:00Z</time>
      </trkpt>
      <trkpt lat="59.9845729017" lon="23.4000835782">
        <ele>27.8</ele>
        <time>2012-02-19T10:46:03Z</time>
      </trkpt>
      <trkpt lat="59.9846160685" lon="23.4002758589">
        <ele>28.4</ele>
        <time>2012-02-19T10:46:08Z</time>
      </trkpt>
      <trkpt lat="59.9846484226" lon="23.4005451694">
        <ele>28.8</ele>
        <time>2012-02-19T10:46:14Z</time>
      </trkpt>
      <trkpt lat="59.984700139" lon="23.4008733208">
        <ele>29</ele>
        <time>2012-02-19T10:46:20Z</time>
      </trkpt>
      <trkpt lat="59.9847086885" lon="23.4009195051">
        <ele>29</ele>
        <time>2012-02-19T10:46:21Z</time>
      </trkpt>
      <trkpt lat="59.984746407" lon="23.4012277913">
        <ele>29.4</ele>
        <time>2012-02-19T10:46:27Z</time>
      </trkpt>
      <trkpt lat="59.9847546213" lon="23.4012781666">
        <ele>29.6</ele>
        <time>2012-02-19T10:46:28Z</time>
      </trkpt>
      <trkpt lat="59.9848092713" lon="23.4016861974">
        <ele>30.6</ele>
        <time>2012-02-19T10:46:36Z</time>
      </trkpt>
      <trkpt lat="59.9848277953" lon="23.4018347247">
        <ele>31.2</ele>
        <time>2012-02-19T10:46:39Z</time>
      </trkpt>
      <trkpt lat="59.9848749854" lon="23.4021228944">
        <ele>32.2</ele>
        <time>2012-02-19T10:46:45Z</time>
      </trkpt>
      <trkpt lat="59.9848795116" lon="23.4021784664">
        <ele>32.2</ele>
        <time>2012-02-19T10:46:46Z</time>
      </trkpt>
      <trkpt lat="59.9849143803" lon="23.4024797119">
        <ele>32.8</ele>
        <time>2012-02-19T10:46:52Z</time>
      </trkpt>
      <trkpt lat="59.9849669348" lon="23.4028725716">
        <ele>33</ele>
        <time>2012-02-19T10:46:59Z</time>
      </trkpt>
      <trkpt lat="59.9850129515" lon="23.4032837038">
        <ele>33.2</ele>
        <time>2012-02-19T10:47:06Z</time>
      </trkpt>
      <trkpt lat="59.9850531008" lon="23.4035064947">
        <ele>33.2</ele>
        <time>2012-02-19T10:47:10Z</time>
      </trkpt>
      <trkpt lat="59.9850819345" lon="23.4037798284">
        <ele>33.2</ele>
        <time>2012-02-19T10:47:15Z</time>
      </trkpt>
      <trkpt lat="59.9851146239" lon="23.4040378233">
        <ele>33.2</ele>
        <time>2012-02-19T10:47:20Z</time>
      </trkpt>
      <trkpt lat="59.9851439606" lon="23.4043720935">
        <ele>33.2</ele>
        <time>2012-02-19T10:47:26Z</time>
      </trkpt>
      <trkpt lat="59.9851778234" lon="23.40464878">
        <ele>33.2</ele>
        <time>2012-02-19T10:47:31Z</time>
      </trkpt>
      <trkpt lat="59.9852041426" lon="23.4049872411">
        <ele>33.2</ele>
        <time>2012-02-19T10:47:37Z</time>
      </trkpt>
      <trkpt lat="59.9852272767" lon="23.4053322401">
        <ele>33.2</ele>
        <time>2012-02-19T10:47:43Z</time>
      </trkpt>
      <trkpt lat="59.9852366644" lon="23.4056116927">
        <ele>33.2</ele>
        <time>2012-02-19T10:47:48Z</time>
      </trkpt>
      <trkpt lat="59.9851969342" lon="23.4059645707">
        <ele>33.2</ele>
        <time>2012-02-19T10:47:54Z</time>
      </trkpt>
      <trkpt lat="59.985166005" lon="23.4062022813">
        <ele>33.2</ele>
        <time>2012-02-19T10:47:58Z</time>
      </trkpt>
      <trkpt lat="59.9851121093" lon="23.4065906148">
        <ele>33.2</ele>
        <time>2012-02-19T10:48:05Z</time>
      </trkpt>
      <trkpt lat="59.9851134505" lon="23.4068471009">
        <ele>33.2</ele>
        <time>2012-02-19T10:48:10Z</time>
      </trkpt>
      <trkpt lat="59.9851306333" lon="23.4068898486">
        <ele>33.2</ele>
        <time>2012-02-19T10:48:11Z</time>
      </trkpt>
      <trkpt lat="59.9851750574" lon="23.4069407267">
        <ele>33.2</ele>
        <time>2012-02-19T10:48:13Z</time>
      </trkpt>
      <trkpt lat="59.9852889674" lon="23.406954054">
        <ele>32.4</ele>
        <time>2012-02-19T10:48:18Z</time>
      </trkpt>
      <trkpt lat="59.9854197251" lon="23.4069911858">
        <ele>32</ele>
        <time>2012-02-19T10:48:23Z</time>
      </trkpt>
      <trkpt lat="59.985557775" lon="23.4070569837">
        <ele>31.6</ele>
        <time>2012-02-19T10:48:28Z</time>
      </trkpt>
      <trkpt lat="59.9856986747" lon="23.4071485979">
        <ele>30.6</ele>
        <time>2012-02-19T10:48:33Z</time>
      </trkpt>
      <trkpt lat="59.9858301029" lon="23.4072503541">
        <ele>30</ele>
        <time>2012-02-19T10:48:38Z</time>
      </trkpt>
      <trkpt lat="59.9860121578" lon="23.4073679522">
        <ele>29.6</ele>
        <time>2012-02-19T10:48:45Z</time>
      </trkpt>
      <trkpt lat="59.9862052767" lon="23.4073888231">
        <ele>28.4</ele>
        <time>2012-02-19T10:48:52Z</time>
      </trkpt>
      <trkpt lat="59.9863456736" lon="23.4073844645">
        <ele>28</ele>
        <time>2012-02-19T10:48:57Z</time>
      </trkpt>
      <trkpt lat="59.9865210229" lon="23.4073967021">
        <ele>27.6</ele>
        <time>2012-02-19T10:49:03Z</time>
      </trkpt>
      <trkpt lat="59.9866596595" lon="23.4073718917">
        <ele>26.6</ele>
        <time>2012-02-19T10:49:08Z</time>
      </trkpt>
      <trkpt lat="59.9868541196" lon="23.4073521104">
        <ele>25.8</ele>
        <time>2012-02-19T10:49:15Z</time>
      </trkpt>
      <trkpt lat="59.9870218414" lon="23.4073156491">
        <ele>25.6</ele>
        <time>2012-02-19T10:49:21Z</time>
      </trkpt>
      <trkpt lat="59.9871563709" lon="23.4072417208">
        <ele>24.8</ele>
        <time>2012-02-19T10:49:26Z</time>
      </trkpt>
      <trkpt lat="59.9873104303" lon="23.4070886673">
        <ele>24</ele>
        <time>2012-02-19T10:49:32Z</time>
      </trkpt>
      <trkpt lat="59.9874468038" lon="23.4069282377">
        <ele>23.6</ele>
        <time>2012-02-19T10:49:38Z</time>
      </trkpt>
      <trkpt lat="59.9875126017" lon="23.4068486097">
        <ele>23.4</ele>
        <time>2012-02-19T10:49:41Z</time>
      </trkpt>
      <trkpt lat="59.9876213149" lon="23.4066927063">
        <ele>23</ele>
        <time>2012-02-19T10:49:46Z</time>
      </trkpt>
      <trkpt lat="59.9876875319" lon="23.4066100608">
        <ele>22.4</ele>
        <time>2012-02-19T10:49:49Z</time>
      </trkpt>
      <trkpt lat="59.987844944" lon="23.4064204622">
        <ele>21.8</ele>
        <time>2012-02-19T10:49:56Z</time>
      </trkpt>
      <trkpt lat="59.9879534058" lon="23.406282077">
        <ele>21.4</ele>
        <time>2012-02-19T10:50:01Z</time>
      </trkpt>
      <trkpt lat="59.988140406" lon="23.4062037063">
        <ele>21.4</ele>
        <time>2012-02-19T10:50:07Z</time>
      </trkpt>
      <trkpt lat="59.9881707485" lon="23.4062072267">
        <ele>21.2</ele>
        <time>2012-02-19T10:50:08Z</time>
      </trkpt>
      <trkpt lat="59.9883476066" lon="23.4063078095">
        <ele>20.4</ele>
        <time>2012-02-19T10:50:14Z</time>
      </trkpt>
      <trkpt lat="59.9885075332" lon="23.4065047841">
        <ele>19.8</ele>
        <time>2012-02-19T10:50:20Z</time>
      </trkpt>
      <trkpt lat="59.9885882509" lon="23.4066309317">
        <ele>19.6</ele>
        <time>2012-02-19T10:50:24Z</time>
      </trkpt>
      <trkpt lat="59.9886914321" lon="23.4068045209">
        <ele>19.2</ele>
        <time>2012-02-19T10:50:29Z</time>
      </trkpt>
      <trkpt lat="59.9887651928" lon="23.4069600051">
        <ele>19.2</ele>
        <time>2012-02-19T10:50:33Z</time>
      </trkpt>
      <trkpt lat="59.9888464973" lon="23.4071511124">
        <ele>18.6</ele>
        <time>2012-02-19T10:50:37Z</time>
      </trkpt>
      <trkpt lat="59.9889902468" lon="23.4074309841">
        <ele>17.8</ele>
        <time>2012-02-19T10:50:43Z</time>
      </trkpt>
      <trkpt lat="59.9890598166" lon="23.4075182396">
        <ele>17.6</ele>
        <time>2012-02-19T10:50:46Z</time>
      </trkpt>
      <trkpt lat="59.9891614052" lon="23.4076377655">
        <ele>17.4</ele>
        <time>2012-02-19T10:50:50Z</time>
      </trkpt>
      <trkpt lat="59.9893084238" lon="23.4077689423">
        <ele>17.2</ele>
        <time>2012-02-19T10:50:56Z</time>
      </trkpt>
      <trkpt lat="59.9894677637" lon="23.4079123566">
        <ele>17</ele>
        <time>2012-02-19T10:51:02Z</time>
      </trkpt>
      <trkpt lat="59.9895776504" lon="23.4080266857">
        <ele>17</ele>
        <time>2012-02-19T10:51:06Z</time>
      </trkpt>
      <trkpt lat="59.9897057258" lon="23.4081531686">
        <ele>17</ele>
        <time>2012-02-19T10:51:11Z</time>
      </trkpt>
      <trkpt lat="59.9898379084" lon="23.4080955849">
        <ele>17</ele>
        <time>2012-02-19T10:51:16Z</time>
      </trkpt>
      <trkpt lat="59.9898825839" lon="23.4079609716">
        <ele>17</ele>
        <time>2012-02-19T10:51:20Z</time>
      </trkpt>
      <trkpt lat="59.9898903791" lon="23.4079418609">
        <ele>17</ele>
        <time>2012-02-19T10:51:21Z</time>
      </trkpt>
    </trkseg>
  </trk>
</gpx>